<?xml version="1.0" encoding="UTF-8" standalone="no" ?>
<gpx xmlns="http://www.topografix.com/GPX/1/1" xmlns:xsi="http://www.w3.org/2001/XMLSchema-instance" xsi:schemaLocation="http://www.topografix.com/GPX/1/1 http://www.topografix.com/GPX/1/1/gpx.xsd" version="1.1" creator="VisuGPX - https://www.visugpx.com">
  <metadata>
    <name>Barraux - Bellecombe - St Georges</name>
    <desc><![CDATA[Barraux, Chappareillan, Bellecombe, St Georges, Ste Marie du Mont?]]></desc>
  </metadata>
  <trk>
    <name><![CDATA[st georges]]></name>
    <desc><![CDATA[<h1>OruxMaps</h1><br /><hr align="center" width="480" style="height: 2px; width: 517px"/><h2>Nom: st georges</h2><br /><p>Temps de départ: 08/24/2013 09:57</p><p>Temps d'arrivée: 08/24/2013 12:52</p><p>Distance: 27,8 km (02:55)</p><p>Temps déplacement: 02:13</p><p>Vitesse moyenne: 9,5 km/h</p><p>Vitesse moyenne: 12,5 km/h</p><p>Vitess Max.: 41 km/h</p><p>Altitude minimale: 276 m</p><p>Altitude maximale: 1107 m</p><p>Vitesse d'élévation: 815,5 m/h</p><p>Vitesse de descente: -1438,9 m/h</p><p>Gain Altitude: 1248 m</p><p>Perte Altitude: -1322 m</p><p>Temps d'élévation: 01:31</p><p>Temps de descente: 00:55</p><hr align="center" width="480" style="height: 2px; width: 517px"/>]]></desc>
    <trkseg>
      <trkpt lat="45.42914" lon="5.98393">
        <ele>335.53</ele>
        <time>2013-08-24T07:57:13Z</time>
      </trkpt>
      <trkpt lat="45.42919" lon="5.98367">
        <ele>334.48</ele>
        <time>2013-08-24T07:57:24Z</time>
      </trkpt>
      <trkpt lat="45.4293" lon="5.98346">
        <ele>330.58</ele>
        <time>2013-08-24T07:57:30Z</time>
      </trkpt>
      <trkpt lat="45.42938" lon="5.98318">
        <ele>329.48</ele>
        <time>2013-08-24T07:57:34Z</time>
      </trkpt>
      <trkpt lat="45.42953" lon="5.98295">
        <ele>323.76</ele>
        <time>2013-08-24T07:57:38Z</time>
      </trkpt>
      <trkpt lat="45.42966" lon="5.98276">
        <ele>323.85</ele>
        <time>2013-08-24T07:57:42Z</time>
      </trkpt>
      <trkpt lat="45.42979" lon="5.98256">
        <ele>325.64</ele>
        <time>2013-08-24T07:57:46Z</time>
      </trkpt>
      <trkpt lat="45.42992" lon="5.98236">
        <ele>323.8</ele>
        <time>2013-08-24T07:57:51Z</time>
      </trkpt>
      <trkpt lat="45.43006" lon="5.98214">
        <ele>321.53</ele>
        <time>2013-08-24T07:57:57Z</time>
      </trkpt>
      <trkpt lat="45.43018" lon="5.98195">
        <ele>320.28</ele>
        <time>2013-08-24T07:58:02Z</time>
      </trkpt>
      <trkpt lat="45.43032" lon="5.98173">
        <ele>318.59</ele>
        <time>2013-08-24T07:58:08Z</time>
      </trkpt>
      <trkpt lat="45.43051" lon="5.98161">
        <ele>323.13</ele>
        <time>2013-08-24T07:58:14Z</time>
      </trkpt>
      <trkpt lat="45.4307" lon="5.98157">
        <ele>327.94</ele>
        <time>2013-08-24T07:58:19Z</time>
      </trkpt>
      <trkpt lat="45.43091" lon="5.98152">
        <ele>324.57</ele>
        <time>2013-08-24T07:58:24Z</time>
      </trkpt>
      <trkpt lat="45.43109" lon="5.98154">
        <ele>324.96</ele>
        <time>2013-08-24T07:58:28Z</time>
      </trkpt>
      <trkpt lat="45.4313" lon="5.98154">
        <ele>328.94</ele>
        <time>2013-08-24T07:58:33Z</time>
      </trkpt>
      <trkpt lat="45.43145" lon="5.98135">
        <ele>332.14</ele>
        <time>2013-08-24T07:58:39Z</time>
      </trkpt>
      <trkpt lat="45.43151" lon="5.98107">
        <ele>338.04</ele>
        <time>2013-08-24T07:58:46Z</time>
      </trkpt>
      <trkpt lat="45.43156" lon="5.9808">
        <ele>333.33</ele>
        <time>2013-08-24T07:58:53Z</time>
      </trkpt>
      <trkpt lat="45.4316" lon="5.98054">
        <ele>335.59</ele>
        <time>2013-08-24T07:59:00Z</time>
      </trkpt>
      <trkpt lat="45.43166" lon="5.98026">
        <ele>338.17</ele>
        <time>2013-08-24T07:59:07Z</time>
      </trkpt>
      <trkpt lat="45.43173" lon="5.98">
        <ele>340.36</ele>
        <time>2013-08-24T07:59:14Z</time>
      </trkpt>
      <trkpt lat="45.43181" lon="5.97973">
        <ele>343.82</ele>
        <time>2013-08-24T07:59:21Z</time>
      </trkpt>
      <trkpt lat="45.43189" lon="5.97949">
        <ele>343.77</ele>
        <time>2013-08-24T07:59:28Z</time>
      </trkpt>
      <trkpt lat="45.43197" lon="5.97923">
        <ele>344.99</ele>
        <time>2013-08-24T07:59:35Z</time>
      </trkpt>
      <trkpt lat="45.43206" lon="5.97897">
        <ele>343.13</ele>
        <time>2013-08-24T07:59:42Z</time>
      </trkpt>
      <trkpt lat="45.43217" lon="5.97871">
        <ele>345.25</ele>
        <time>2013-08-24T07:59:49Z</time>
      </trkpt>
      <trkpt lat="45.43229" lon="5.97849">
        <ele>348.85</ele>
        <time>2013-08-24T07:59:55Z</time>
      </trkpt>
      <trkpt lat="45.43242" lon="5.97831">
        <ele>349.77</ele>
        <time>2013-08-24T08:00:02Z</time>
      </trkpt>
      <trkpt lat="45.43255" lon="5.97812">
        <ele>352.92</ele>
        <time>2013-08-24T08:00:09Z</time>
      </trkpt>
      <trkpt lat="45.43268" lon="5.9779">
        <ele>354.01</ele>
        <time>2013-08-24T08:00:17Z</time>
      </trkpt>
      <trkpt lat="45.43279" lon="5.97769">
        <ele>354.7</ele>
        <time>2013-08-24T08:00:24Z</time>
      </trkpt>
      <trkpt lat="45.4329" lon="5.97747">
        <ele>356.09</ele>
        <time>2013-08-24T08:00:32Z</time>
      </trkpt>
      <trkpt lat="45.43304" lon="5.97728">
        <ele>355.75</ele>
        <time>2013-08-24T08:00:42Z</time>
      </trkpt>
      <trkpt lat="45.43323" lon="5.97728">
        <ele>355.66</ele>
        <time>2013-08-24T08:00:51Z</time>
      </trkpt>
      <trkpt lat="45.43339" lon="5.97741">
        <ele>351.81</ele>
        <time>2013-08-24T08:01:00Z</time>
      </trkpt>
      <trkpt lat="45.43357" lon="5.9776">
        <ele>345.89</ele>
        <time>2013-08-24T08:01:09Z</time>
      </trkpt>
      <trkpt lat="45.43376" lon="5.97771">
        <ele>342.65</ele>
        <time>2013-08-24T08:01:15Z</time>
      </trkpt>
      <trkpt lat="45.43395" lon="5.97784">
        <ele>347.43</ele>
        <time>2013-08-24T08:01:20Z</time>
      </trkpt>
      <trkpt lat="45.43411" lon="5.978">
        <ele>348.91</ele>
        <time>2013-08-24T08:01:26Z</time>
      </trkpt>
      <trkpt lat="45.43426" lon="5.9782">
        <ele>343.63</ele>
        <time>2013-08-24T08:01:32Z</time>
      </trkpt>
      <trkpt lat="45.43442" lon="5.97838">
        <ele>337.38</ele>
        <time>2013-08-24T08:01:38Z</time>
      </trkpt>
      <trkpt lat="45.43461" lon="5.97844">
        <ele>337.14</ele>
        <time>2013-08-24T08:01:43Z</time>
      </trkpt>
      <trkpt lat="45.43482" lon="5.97848">
        <ele>336.44</ele>
        <time>2013-08-24T08:01:48Z</time>
      </trkpt>
      <trkpt lat="45.43501" lon="5.97846">
        <ele>339.34</ele>
        <time>2013-08-24T08:01:52Z</time>
      </trkpt>
      <trkpt lat="45.43529" lon="5.97844">
        <ele>350.09</ele>
        <time>2013-08-24T08:01:58Z</time>
      </trkpt>
      <trkpt lat="45.43547" lon="5.97841">
        <ele>354.17</ele>
        <time>2013-08-24T08:02:02Z</time>
      </trkpt>
      <trkpt lat="45.43567" lon="5.97838">
        <ele>354.1</ele>
        <time>2013-08-24T08:02:07Z</time>
      </trkpt>
      <trkpt lat="45.43585" lon="5.97833">
        <ele>353.44</ele>
        <time>2013-08-24T08:02:11Z</time>
      </trkpt>
      <trkpt lat="45.43604" lon="5.97838">
        <ele>354.72</ele>
        <time>2013-08-24T08:02:15Z</time>
      </trkpt>
      <trkpt lat="45.43622" lon="5.9784">
        <ele>352.1</ele>
        <time>2013-08-24T08:02:19Z</time>
      </trkpt>
      <trkpt lat="45.43643" lon="5.97846">
        <ele>354.38</ele>
        <time>2013-08-24T08:02:25Z</time>
      </trkpt>
      <trkpt lat="45.43661" lon="5.97858">
        <ele>354.68</ele>
        <time>2013-08-24T08:02:30Z</time>
      </trkpt>
      <trkpt lat="45.43678" lon="5.9787">
        <ele>355.13</ele>
        <time>2013-08-24T08:02:36Z</time>
      </trkpt>
      <trkpt lat="45.43695" lon="5.97882">
        <ele>351.61</ele>
        <time>2013-08-24T08:02:43Z</time>
      </trkpt>
      <trkpt lat="45.43713" lon="5.97896">
        <ele>347.98</ele>
        <time>2013-08-24T08:02:51Z</time>
      </trkpt>
      <trkpt lat="45.4373" lon="5.9791">
        <ele>348.88</ele>
        <time>2013-08-24T08:02:58Z</time>
      </trkpt>
      <trkpt lat="45.43748" lon="5.97921">
        <ele>350.33</ele>
        <time>2013-08-24T08:03:04Z</time>
      </trkpt>
      <trkpt lat="45.4377" lon="5.9793">
        <ele>351.14</ele>
        <time>2013-08-24T08:03:08Z</time>
      </trkpt>
      <trkpt lat="45.4379" lon="5.97937">
        <ele>356.31</ele>
        <time>2013-08-24T08:03:14Z</time>
      </trkpt>
      <trkpt lat="45.43807" lon="5.97944">
        <ele>352.53</ele>
        <time>2013-08-24T08:03:19Z</time>
      </trkpt>
      <trkpt lat="45.43826" lon="5.97955">
        <ele>352.36</ele>
        <time>2013-08-24T08:03:25Z</time>
      </trkpt>
      <trkpt lat="45.43846" lon="5.97966">
        <ele>354.97</ele>
        <time>2013-08-24T08:03:30Z</time>
      </trkpt>
      <trkpt lat="45.43864" lon="5.97971">
        <ele>355.81</ele>
        <time>2013-08-24T08:03:36Z</time>
      </trkpt>
      <trkpt lat="45.43884" lon="5.97984">
        <ele>358.12</ele>
        <time>2013-08-24T08:03:41Z</time>
      </trkpt>
      <trkpt lat="45.43901" lon="5.97994">
        <ele>357.68</ele>
        <time>2013-08-24T08:03:45Z</time>
      </trkpt>
      <trkpt lat="45.4392" lon="5.98002">
        <ele>360.12</ele>
        <time>2013-08-24T08:03:49Z</time>
      </trkpt>
      <trkpt lat="45.43938" lon="5.98008">
        <ele>360.26</ele>
        <time>2013-08-24T08:03:54Z</time>
      </trkpt>
      <trkpt lat="45.43958" lon="5.98013">
        <ele>360.13</ele>
        <time>2013-08-24T08:03:58Z</time>
      </trkpt>
      <trkpt lat="45.43978" lon="5.98014">
        <ele>358.09</ele>
        <time>2013-08-24T08:04:02Z</time>
      </trkpt>
      <trkpt lat="45.43998" lon="5.9802">
        <ele>361.11</ele>
        <time>2013-08-24T08:04:08Z</time>
      </trkpt>
      <trkpt lat="45.44017" lon="5.98025">
        <ele>359.48</ele>
        <time>2013-08-24T08:04:12Z</time>
      </trkpt>
      <trkpt lat="45.44039" lon="5.98031">
        <ele>354.27</ele>
        <time>2013-08-24T08:04:16Z</time>
      </trkpt>
      <trkpt lat="45.44061" lon="5.98035">
        <ele>350.26</ele>
        <time>2013-08-24T08:04:20Z</time>
      </trkpt>
      <trkpt lat="45.44084" lon="5.98036">
        <ele>349.66</ele>
        <time>2013-08-24T08:04:24Z</time>
      </trkpt>
      <trkpt lat="45.44102" lon="5.98032">
        <ele>348.49</ele>
        <time>2013-08-24T08:04:27Z</time>
      </trkpt>
      <trkpt lat="45.44123" lon="5.98027">
        <ele>346.6</ele>
        <time>2013-08-24T08:04:31Z</time>
      </trkpt>
      <trkpt lat="45.44146" lon="5.98023">
        <ele>349.21</ele>
        <time>2013-08-24T08:04:35Z</time>
      </trkpt>
      <trkpt lat="45.44167" lon="5.98018">
        <ele>350.16</ele>
        <time>2013-08-24T08:04:39Z</time>
      </trkpt>
      <trkpt lat="45.4419" lon="5.98022">
        <ele>351.08</ele>
        <time>2013-08-24T08:04:43Z</time>
      </trkpt>
      <trkpt lat="45.44208" lon="5.98027">
        <ele>351.52</ele>
        <time>2013-08-24T08:04:46Z</time>
      </trkpt>
      <trkpt lat="45.44229" lon="5.98035">
        <ele>350.39</ele>
        <time>2013-08-24T08:04:50Z</time>
      </trkpt>
      <trkpt lat="45.44248" lon="5.98042">
        <ele>346.66</ele>
        <time>2013-08-24T08:04:54Z</time>
      </trkpt>
      <trkpt lat="45.44267" lon="5.98049">
        <ele>347.13</ele>
        <time>2013-08-24T08:04:58Z</time>
      </trkpt>
      <trkpt lat="45.44285" lon="5.98059">
        <ele>347.91</ele>
        <time>2013-08-24T08:05:02Z</time>
      </trkpt>
      <trkpt lat="45.44302" lon="5.98067">
        <ele>348.95</ele>
        <time>2013-08-24T08:05:07Z</time>
      </trkpt>
      <trkpt lat="45.44321" lon="5.98075">
        <ele>349.37</ele>
        <time>2013-08-24T08:05:12Z</time>
      </trkpt>
      <trkpt lat="45.44339" lon="5.98085">
        <ele>351.81</ele>
        <time>2013-08-24T08:05:18Z</time>
      </trkpt>
      <trkpt lat="45.44355" lon="5.98099">
        <ele>351.5</ele>
        <time>2013-08-24T08:05:25Z</time>
      </trkpt>
      <trkpt lat="45.44371" lon="5.98113">
        <ele>350.06</ele>
        <time>2013-08-24T08:05:30Z</time>
      </trkpt>
      <trkpt lat="45.44387" lon="5.9813">
        <ele>349.73</ele>
        <time>2013-08-24T08:05:36Z</time>
      </trkpt>
      <trkpt lat="45.44405" lon="5.98143">
        <ele>355.04</ele>
        <time>2013-08-24T08:05:42Z</time>
      </trkpt>
      <trkpt lat="45.44421" lon="5.98158">
        <ele>354.99</ele>
        <time>2013-08-24T08:05:48Z</time>
      </trkpt>
      <trkpt lat="45.44437" lon="5.98175">
        <ele>356.43</ele>
        <time>2013-08-24T08:05:53Z</time>
      </trkpt>
      <trkpt lat="45.44455" lon="5.98188">
        <ele>354.72</ele>
        <time>2013-08-24T08:05:58Z</time>
      </trkpt>
      <trkpt lat="45.44473" lon="5.98202">
        <ele>354.93</ele>
        <time>2013-08-24T08:06:04Z</time>
      </trkpt>
      <trkpt lat="45.44491" lon="5.98214">
        <ele>353.82</ele>
        <time>2013-08-24T08:06:10Z</time>
      </trkpt>
      <trkpt lat="45.44512" lon="5.9822">
        <ele>356.97</ele>
        <time>2013-08-24T08:06:15Z</time>
      </trkpt>
      <trkpt lat="45.44529" lon="5.98231">
        <ele>359.77</ele>
        <time>2013-08-24T08:06:21Z</time>
      </trkpt>
      <trkpt lat="45.44545" lon="5.98247">
        <ele>358.69</ele>
        <time>2013-08-24T08:06:26Z</time>
      </trkpt>
      <trkpt lat="45.44561" lon="5.98265">
        <ele>356.95</ele>
        <time>2013-08-24T08:06:30Z</time>
      </trkpt>
      <trkpt lat="45.44578" lon="5.98279">
        <ele>353.25</ele>
        <time>2013-08-24T08:06:34Z</time>
      </trkpt>
      <trkpt lat="45.44593" lon="5.98294">
        <ele>348.99</ele>
        <time>2013-08-24T08:06:39Z</time>
      </trkpt>
      <trkpt lat="45.4461" lon="5.98307">
        <ele>344.64</ele>
        <time>2013-08-24T08:06:44Z</time>
      </trkpt>
      <trkpt lat="45.4463" lon="5.9832">
        <ele>344.62</ele>
        <time>2013-08-24T08:06:49Z</time>
      </trkpt>
      <trkpt lat="45.44649" lon="5.98335">
        <ele>346.82</ele>
        <time>2013-08-24T08:06:54Z</time>
      </trkpt>
      <trkpt lat="45.44669" lon="5.98345">
        <ele>344.33</ele>
        <time>2013-08-24T08:06:59Z</time>
      </trkpt>
      <trkpt lat="45.44687" lon="5.98354">
        <ele>348.15</ele>
        <time>2013-08-24T08:07:03Z</time>
      </trkpt>
      <trkpt lat="45.44705" lon="5.98366">
        <ele>354.13</ele>
        <time>2013-08-24T08:07:08Z</time>
      </trkpt>
      <trkpt lat="45.44724" lon="5.98369">
        <ele>357.68</ele>
        <time>2013-08-24T08:07:14Z</time>
      </trkpt>
      <trkpt lat="45.44744" lon="5.98375">
        <ele>356.97</ele>
        <time>2013-08-24T08:07:21Z</time>
      </trkpt>
      <trkpt lat="45.44763" lon="5.9838">
        <ele>354.68</ele>
        <time>2013-08-24T08:07:29Z</time>
      </trkpt>
      <trkpt lat="45.44783" lon="5.98383">
        <ele>353.79</ele>
        <time>2013-08-24T08:07:39Z</time>
      </trkpt>
      <trkpt lat="45.44801" lon="5.98373">
        <ele>344.94</ele>
        <time>2013-08-24T08:07:50Z</time>
      </trkpt>
      <trkpt lat="45.44821" lon="5.98368">
        <ele>347.38</ele>
        <time>2013-08-24T08:07:58Z</time>
      </trkpt>
      <trkpt lat="45.4484" lon="5.98366">
        <ele>349.44</ele>
        <time>2013-08-24T08:08:06Z</time>
      </trkpt>
      <trkpt lat="45.44858" lon="5.98373">
        <ele>352.36</ele>
        <time>2013-08-24T08:08:14Z</time>
      </trkpt>
      <trkpt lat="45.44876" lon="5.98384">
        <ele>358.88</ele>
        <time>2013-08-24T08:08:20Z</time>
      </trkpt>
      <trkpt lat="45.44891" lon="5.984">
        <ele>367.02</ele>
        <time>2013-08-24T08:08:26Z</time>
      </trkpt>
      <trkpt lat="45.44907" lon="5.98415">
        <ele>376.55</ele>
        <time>2013-08-24T08:08:36Z</time>
      </trkpt>
      <trkpt lat="45.44926" lon="5.98429">
        <ele>377.46</ele>
        <time>2013-08-24T08:08:49Z</time>
      </trkpt>
      <trkpt lat="45.44946" lon="5.9843">
        <ele>376.94</ele>
        <time>2013-08-24T08:08:59Z</time>
      </trkpt>
      <trkpt lat="45.44964" lon="5.98429">
        <ele>370.55</ele>
        <time>2013-08-24T08:09:08Z</time>
      </trkpt>
      <trkpt lat="45.44983" lon="5.98427">
        <ele>377.75</ele>
        <time>2013-08-24T08:09:16Z</time>
      </trkpt>
      <trkpt lat="45.45001" lon="5.98434">
        <ele>372.8</ele>
        <time>2013-08-24T08:09:28Z</time>
      </trkpt>
      <trkpt lat="45.45021" lon="5.98436">
        <ele>383.75</ele>
        <time>2013-08-24T08:09:41Z</time>
      </trkpt>
      <trkpt lat="45.45042" lon="5.98438">
        <ele>389.31</ele>
        <time>2013-08-24T08:09:50Z</time>
      </trkpt>
      <trkpt lat="45.45061" lon="5.98441">
        <ele>389.53</ele>
        <time>2013-08-24T08:09:56Z</time>
      </trkpt>
      <trkpt lat="45.45082" lon="5.98443">
        <ele>389.16</ele>
        <time>2013-08-24T08:10:02Z</time>
      </trkpt>
      <trkpt lat="45.451" lon="5.98448">
        <ele>395.11</ele>
        <time>2013-08-24T08:10:10Z</time>
      </trkpt>
      <trkpt lat="45.45119" lon="5.98455">
        <ele>399.79</ele>
        <time>2013-08-24T08:10:18Z</time>
      </trkpt>
      <trkpt lat="45.45138" lon="5.9846">
        <ele>405.03</ele>
        <time>2013-08-24T08:10:29Z</time>
      </trkpt>
      <trkpt lat="45.45153" lon="5.98476">
        <ele>409.74</ele>
        <time>2013-08-24T08:10:44Z</time>
      </trkpt>
      <trkpt lat="45.45171" lon="5.98477">
        <ele>396.62</ele>
        <time>2013-08-24T08:10:55Z</time>
      </trkpt>
      <trkpt lat="45.45187" lon="5.9849">
        <ele>394.25</ele>
        <time>2013-08-24T08:11:00Z</time>
      </trkpt>
      <trkpt lat="45.45203" lon="5.98504">
        <ele>382.06</ele>
        <time>2013-08-24T08:11:06Z</time>
      </trkpt>
      <trkpt lat="45.45221" lon="5.98508">
        <ele>376.57</ele>
        <time>2013-08-24T08:11:15Z</time>
      </trkpt>
      <trkpt lat="45.4524" lon="5.98511">
        <ele>390.18</ele>
        <time>2013-08-24T08:11:40Z</time>
      </trkpt>
      <trkpt lat="45.45256" lon="5.98498">
        <ele>421.99</ele>
        <time>2013-08-24T08:14:47Z</time>
      </trkpt>
      <trkpt lat="45.45276" lon="5.98491">
        <ele>389.76</ele>
        <time>2013-08-24T08:15:38Z</time>
      </trkpt>
      <trkpt lat="45.45302" lon="5.98487">
        <ele>387.5</ele>
        <time>2013-08-24T08:15:42Z</time>
      </trkpt>
      <trkpt lat="45.45323" lon="5.9849">
        <ele>384.63</ele>
        <time>2013-08-24T08:15:45Z</time>
      </trkpt>
      <trkpt lat="45.45342" lon="5.98494">
        <ele>375.68</ele>
        <time>2013-08-24T08:15:49Z</time>
      </trkpt>
      <trkpt lat="45.45358" lon="5.98482">
        <ele>366.51</ele>
        <time>2013-08-24T08:15:54Z</time>
      </trkpt>
      <trkpt lat="45.45361" lon="5.98457">
        <ele>360.37</ele>
        <time>2013-08-24T08:15:59Z</time>
      </trkpt>
      <trkpt lat="45.45362" lon="5.9843">
        <ele>361.45</ele>
        <time>2013-08-24T08:16:09Z</time>
      </trkpt>
      <trkpt lat="45.45363" lon="5.98404">
        <ele>359.37</ele>
        <time>2013-08-24T08:16:20Z</time>
      </trkpt>
      <trkpt lat="45.45373" lon="5.98381">
        <ele>363.59</ele>
        <time>2013-08-24T08:16:30Z</time>
      </trkpt>
      <trkpt lat="45.45388" lon="5.98363">
        <ele>382.93</ele>
        <time>2013-08-24T08:16:40Z</time>
      </trkpt>
      <trkpt lat="45.45402" lon="5.98345">
        <ele>383.33</ele>
        <time>2013-08-24T08:16:49Z</time>
      </trkpt>
      <trkpt lat="45.45414" lon="5.98326">
        <ele>376.26</ele>
        <time>2013-08-24T08:16:57Z</time>
      </trkpt>
      <trkpt lat="45.45429" lon="5.98304">
        <ele>370.52</ele>
        <time>2013-08-24T08:17:02Z</time>
      </trkpt>
      <trkpt lat="45.45428" lon="5.98273">
        <ele>366.32</ele>
        <time>2013-08-24T08:17:06Z</time>
      </trkpt>
      <trkpt lat="45.4543" lon="5.98245">
        <ele>359.87</ele>
        <time>2013-08-24T08:17:10Z</time>
      </trkpt>
      <trkpt lat="45.45446" lon="5.98217">
        <ele>374.51</ele>
        <time>2013-08-24T08:17:24Z</time>
      </trkpt>
      <trkpt lat="45.45461" lon="5.98197">
        <ele>373.11</ele>
        <time>2013-08-24T08:17:27Z</time>
      </trkpt>
      <trkpt lat="45.45471" lon="5.9817">
        <ele>363.77</ele>
        <time>2013-08-24T08:17:31Z</time>
      </trkpt>
      <trkpt lat="45.45482" lon="5.98144">
        <ele>358.46</ele>
        <time>2013-08-24T08:17:34Z</time>
      </trkpt>
      <trkpt lat="45.45498" lon="5.98131">
        <ele>352.82</ele>
        <time>2013-08-24T08:17:38Z</time>
      </trkpt>
      <trkpt lat="45.45518" lon="5.98121">
        <ele>353.29</ele>
        <time>2013-08-24T08:17:41Z</time>
      </trkpt>
      <trkpt lat="45.45537" lon="5.98111">
        <ele>353.72</ele>
        <time>2013-08-24T08:17:44Z</time>
      </trkpt>
      <trkpt lat="45.45555" lon="5.98094">
        <ele>352.61</ele>
        <time>2013-08-24T08:17:50Z</time>
      </trkpt>
      <trkpt lat="45.45572" lon="5.98076">
        <ele>343.21</ele>
        <time>2013-08-24T08:17:57Z</time>
      </trkpt>
      <trkpt lat="45.45577" lon="5.98102">
        <ele>335.81</ele>
        <time>2013-08-24T08:18:07Z</time>
      </trkpt>
      <trkpt lat="45.45578" lon="5.98128">
        <ele>337.22</ele>
        <time>2013-08-24T08:18:11Z</time>
      </trkpt>
      <trkpt lat="45.45575" lon="5.98155">
        <ele>339.33</ele>
        <time>2013-08-24T08:18:14Z</time>
      </trkpt>
      <trkpt lat="45.45568" lon="5.98183">
        <ele>343.17</ele>
        <time>2013-08-24T08:18:18Z</time>
      </trkpt>
      <trkpt lat="45.45562" lon="5.98213">
        <ele>346.77</ele>
        <time>2013-08-24T08:18:22Z</time>
      </trkpt>
      <trkpt lat="45.45556" lon="5.98239">
        <ele>350.07</ele>
        <time>2013-08-24T08:18:26Z</time>
      </trkpt>
      <trkpt lat="45.45541" lon="5.9826">
        <ele>347.88</ele>
        <time>2013-08-24T08:18:33Z</time>
      </trkpt>
      <trkpt lat="45.45528" lon="5.98281">
        <ele>341.63</ele>
        <time>2013-08-24T08:18:37Z</time>
      </trkpt>
      <trkpt lat="45.4552" lon="5.98309">
        <ele>335.67</ele>
        <time>2013-08-24T08:18:41Z</time>
      </trkpt>
      <trkpt lat="45.45514" lon="5.98336">
        <ele>332.3</ele>
        <time>2013-08-24T08:18:44Z</time>
      </trkpt>
      <trkpt lat="45.45526" lon="5.98362">
        <ele>329.42</ele>
        <time>2013-08-24T08:18:48Z</time>
      </trkpt>
      <trkpt lat="45.45542" lon="5.98376">
        <ele>324.5</ele>
        <time>2013-08-24T08:18:51Z</time>
      </trkpt>
      <trkpt lat="45.45555" lon="5.98395">
        <ele>322.12</ele>
        <time>2013-08-24T08:18:54Z</time>
      </trkpt>
      <trkpt lat="45.45568" lon="5.98424">
        <ele>322.33</ele>
        <time>2013-08-24T08:18:58Z</time>
      </trkpt>
      <trkpt lat="45.45578" lon="5.98452">
        <ele>323.75</ele>
        <time>2013-08-24T08:19:02Z</time>
      </trkpt>
      <trkpt lat="45.45598" lon="5.9847">
        <ele>323.59</ele>
        <time>2013-08-24T08:19:06Z</time>
      </trkpt>
      <trkpt lat="45.45619" lon="5.98471">
        <ele>323.96</ele>
        <time>2013-08-24T08:19:12Z</time>
      </trkpt>
      <trkpt lat="45.45635" lon="5.98487">
        <ele>313.84</ele>
        <time>2013-08-24T08:19:17Z</time>
      </trkpt>
      <trkpt lat="45.45658" lon="5.98493">
        <ele>307.46</ele>
        <time>2013-08-24T08:19:21Z</time>
      </trkpt>
      <trkpt lat="45.4568" lon="5.98505">
        <ele>304.53</ele>
        <time>2013-08-24T08:19:24Z</time>
      </trkpt>
      <trkpt lat="45.45691" lon="5.9853">
        <ele>301.53</ele>
        <time>2013-08-24T08:19:27Z</time>
      </trkpt>
      <trkpt lat="45.45694" lon="5.98562">
        <ele>301.43</ele>
        <time>2013-08-24T08:19:30Z</time>
      </trkpt>
      <trkpt lat="45.45701" lon="5.98594">
        <ele>303.47</ele>
        <time>2013-08-24T08:19:33Z</time>
      </trkpt>
      <trkpt lat="45.45718" lon="5.98618">
        <ele>302.72</ele>
        <time>2013-08-24T08:19:36Z</time>
      </trkpt>
      <trkpt lat="45.45736" lon="5.98637">
        <ele>301.92</ele>
        <time>2013-08-24T08:19:39Z</time>
      </trkpt>
      <trkpt lat="45.45758" lon="5.98653">
        <ele>302.77</ele>
        <time>2013-08-24T08:19:42Z</time>
      </trkpt>
      <trkpt lat="45.45776" lon="5.98664">
        <ele>303.13</ele>
        <time>2013-08-24T08:19:44Z</time>
      </trkpt>
      <trkpt lat="45.45796" lon="5.98673">
        <ele>302.15</ele>
        <time>2013-08-24T08:19:46Z</time>
      </trkpt>
      <trkpt lat="45.4582" lon="5.98688">
        <ele>299.04</ele>
        <time>2013-08-24T08:19:49Z</time>
      </trkpt>
      <trkpt lat="45.45836" lon="5.98701">
        <ele>291.94</ele>
        <time>2013-08-24T08:19:53Z</time>
      </trkpt>
      <trkpt lat="45.45852" lon="5.98722">
        <ele>284.46</ele>
        <time>2013-08-24T08:19:57Z</time>
      </trkpt>
      <trkpt lat="45.45868" lon="5.98745">
        <ele>286.79</ele>
        <time>2013-08-24T08:20:01Z</time>
      </trkpt>
      <trkpt lat="45.45882" lon="5.98762">
        <ele>291.89</ele>
        <time>2013-08-24T08:20:05Z</time>
      </trkpt>
      <trkpt lat="45.45895" lon="5.98782">
        <ele>291.46</ele>
        <time>2013-08-24T08:20:08Z</time>
      </trkpt>
      <trkpt lat="45.4591" lon="5.98805">
        <ele>292.44</ele>
        <time>2013-08-24T08:20:11Z</time>
      </trkpt>
      <trkpt lat="45.45926" lon="5.98826">
        <ele>291.57</ele>
        <time>2013-08-24T08:20:14Z</time>
      </trkpt>
      <trkpt lat="45.4594" lon="5.98846">
        <ele>291.9</ele>
        <time>2013-08-24T08:20:17Z</time>
      </trkpt>
      <trkpt lat="45.45956" lon="5.98862">
        <ele>289.97</ele>
        <time>2013-08-24T08:20:20Z</time>
      </trkpt>
      <trkpt lat="45.45976" lon="5.98871">
        <ele>291.92</ele>
        <time>2013-08-24T08:20:23Z</time>
      </trkpt>
      <trkpt lat="45.45998" lon="5.98883">
        <ele>288.39</ele>
        <time>2013-08-24T08:20:26Z</time>
      </trkpt>
      <trkpt lat="45.46018" lon="5.98898">
        <ele>283.67</ele>
        <time>2013-08-24T08:20:29Z</time>
      </trkpt>
      <trkpt lat="45.46042" lon="5.98913">
        <ele>286.56</ele>
        <time>2013-08-24T08:20:35Z</time>
      </trkpt>
      <trkpt lat="45.4606" lon="5.9892">
        <ele>286.55</ele>
        <time>2013-08-24T08:20:38Z</time>
      </trkpt>
      <trkpt lat="45.46082" lon="5.98922">
        <ele>286.77</ele>
        <time>2013-08-24T08:20:41Z</time>
      </trkpt>
      <trkpt lat="45.461" lon="5.98921">
        <ele>286.76</ele>
        <time>2013-08-24T08:20:44Z</time>
      </trkpt>
      <trkpt lat="45.4612" lon="5.98919">
        <ele>286.59</ele>
        <time>2013-08-24T08:20:48Z</time>
      </trkpt>
      <trkpt lat="45.4614" lon="5.98924">
        <ele>284.17</ele>
        <time>2013-08-24T08:20:52Z</time>
      </trkpt>
      <trkpt lat="45.46159" lon="5.98943">
        <ele>282.9</ele>
        <time>2013-08-24T08:20:58Z</time>
      </trkpt>
      <trkpt lat="45.46178" lon="5.98958">
        <ele>286.79</ele>
        <time>2013-08-24T08:21:03Z</time>
      </trkpt>
      <trkpt lat="45.46196" lon="5.98966">
        <ele>284.13</ele>
        <time>2013-08-24T08:21:07Z</time>
      </trkpt>
      <trkpt lat="45.46214" lon="5.98981">
        <ele>280.38</ele>
        <time>2013-08-24T08:21:11Z</time>
      </trkpt>
      <trkpt lat="45.46228" lon="5.99001">
        <ele>276.68</ele>
        <time>2013-08-24T08:21:14Z</time>
      </trkpt>
      <trkpt lat="45.46245" lon="5.99014">
        <ele>279.41</ele>
        <time>2013-08-24T08:21:17Z</time>
      </trkpt>
      <trkpt lat="45.46267" lon="5.99027">
        <ele>286.18</ele>
        <time>2013-08-24T08:21:20Z</time>
      </trkpt>
      <trkpt lat="45.46288" lon="5.99038">
        <ele>287.13</ele>
        <time>2013-08-24T08:21:23Z</time>
      </trkpt>
      <trkpt lat="45.46308" lon="5.9904">
        <ele>289.73</ele>
        <time>2013-08-24T08:21:26Z</time>
      </trkpt>
      <trkpt lat="45.46328" lon="5.99042">
        <ele>285.97</ele>
        <time>2013-08-24T08:21:30Z</time>
      </trkpt>
      <trkpt lat="45.46348" lon="5.99038">
        <ele>284.28</ele>
        <time>2013-08-24T08:21:35Z</time>
      </trkpt>
      <trkpt lat="45.4637" lon="5.99035">
        <ele>282.59</ele>
        <time>2013-08-24T08:21:40Z</time>
      </trkpt>
      <trkpt lat="45.46391" lon="5.99029">
        <ele>284.47</ele>
        <time>2013-08-24T08:21:44Z</time>
      </trkpt>
      <trkpt lat="45.46399" lon="5.99004">
        <ele>281.82</ele>
        <time>2013-08-24T08:21:48Z</time>
      </trkpt>
      <trkpt lat="45.46392" lon="5.98981">
        <ele>281.77</ele>
        <time>2013-08-24T08:21:52Z</time>
      </trkpt>
      <trkpt lat="45.46388" lon="5.98951">
        <ele>287.12</ele>
        <time>2013-08-24T08:21:57Z</time>
      </trkpt>
      <trkpt lat="45.46383" lon="5.98926">
        <ele>290.94</ele>
        <time>2013-08-24T08:22:02Z</time>
      </trkpt>
      <trkpt lat="45.46378" lon="5.98898">
        <ele>291.24</ele>
        <time>2013-08-24T08:22:08Z</time>
      </trkpt>
      <trkpt lat="45.46378" lon="5.98868">
        <ele>287.74</ele>
        <time>2013-08-24T08:22:13Z</time>
      </trkpt>
      <trkpt lat="45.46381" lon="5.98839">
        <ele>287.54</ele>
        <time>2013-08-24T08:22:19Z</time>
      </trkpt>
      <trkpt lat="45.46374" lon="5.98813">
        <ele>283.96</ele>
        <time>2013-08-24T08:22:27Z</time>
      </trkpt>
      <trkpt lat="45.46371" lon="5.98784">
        <ele>287.46</ele>
        <time>2013-08-24T08:22:32Z</time>
      </trkpt>
      <trkpt lat="45.46366" lon="5.98753">
        <ele>283.98</ele>
        <time>2013-08-24T08:22:37Z</time>
      </trkpt>
      <trkpt lat="45.46362" lon="5.98725">
        <ele>292.82</ele>
        <time>2013-08-24T08:22:45Z</time>
      </trkpt>
      <trkpt lat="45.46353" lon="5.98687">
        <ele>295.11</ele>
        <time>2013-08-24T08:22:56Z</time>
      </trkpt>
      <trkpt lat="45.46368" lon="5.98671">
        <ele>296.94</ele>
        <time>2013-08-24T08:23:03Z</time>
      </trkpt>
      <trkpt lat="45.46389" lon="5.98663">
        <ele>295.99</ele>
        <time>2013-08-24T08:23:07Z</time>
      </trkpt>
      <trkpt lat="45.46412" lon="5.98655">
        <ele>295.27</ele>
        <time>2013-08-24T08:23:11Z</time>
      </trkpt>
      <trkpt lat="45.46436" lon="5.98655">
        <ele>293.47</ele>
        <time>2013-08-24T08:23:15Z</time>
      </trkpt>
      <trkpt lat="45.46454" lon="5.98653">
        <ele>294.44</ele>
        <time>2013-08-24T08:23:18Z</time>
      </trkpt>
      <trkpt lat="45.46476" lon="5.98649">
        <ele>289.49</ele>
        <time>2013-08-24T08:23:22Z</time>
      </trkpt>
      <trkpt lat="45.46496" lon="5.98645">
        <ele>288.37</ele>
        <time>2013-08-24T08:23:25Z</time>
      </trkpt>
      <trkpt lat="45.46516" lon="5.9864">
        <ele>285.87</ele>
        <time>2013-08-24T08:23:29Z</time>
      </trkpt>
      <trkpt lat="45.46532" lon="5.98621">
        <ele>284.34</ele>
        <time>2013-08-24T08:23:37Z</time>
      </trkpt>
      <trkpt lat="45.46526" lon="5.98597">
        <ele>283.29</ele>
        <time>2013-08-24T08:23:45Z</time>
      </trkpt>
      <trkpt lat="45.46518" lon="5.98572">
        <ele>285.65</ele>
        <time>2013-08-24T08:23:54Z</time>
      </trkpt>
      <trkpt lat="45.46509" lon="5.98547">
        <ele>291.06</ele>
        <time>2013-08-24T08:24:02Z</time>
      </trkpt>
      <trkpt lat="45.46502" lon="5.98523">
        <ele>289.72</ele>
        <time>2013-08-24T08:24:10Z</time>
      </trkpt>
      <trkpt lat="45.46485" lon="5.98513">
        <ele>295.06</ele>
        <time>2013-08-24T08:24:29Z</time>
      </trkpt>
      <trkpt lat="45.46473" lon="5.98533">
        <ele>292.65</ele>
        <time>2013-08-24T08:24:40Z</time>
      </trkpt>
      <trkpt lat="45.46467" lon="5.98559">
        <ele>287.17</ele>
        <time>2013-08-24T08:24:53Z</time>
      </trkpt>
      <trkpt lat="45.46455" lon="5.98585">
        <ele>293.94</ele>
        <time>2013-08-24T08:25:07Z</time>
      </trkpt>
      <trkpt lat="45.4644" lon="5.98565">
        <ele>303.69</ele>
        <time>2013-08-24T08:25:19Z</time>
      </trkpt>
      <trkpt lat="45.46435" lon="5.98537">
        <ele>304.5</ele>
        <time>2013-08-24T08:25:29Z</time>
      </trkpt>
      <trkpt lat="45.46429" lon="5.98513">
        <ele>312.12</ele>
        <time>2013-08-24T08:25:40Z</time>
      </trkpt>
      <trkpt lat="45.46421" lon="5.9849">
        <ele>316.53</ele>
        <time>2013-08-24T08:25:55Z</time>
      </trkpt>
      <trkpt lat="45.4641" lon="5.98469">
        <ele>323.08</ele>
        <time>2013-08-24T08:26:07Z</time>
      </trkpt>
      <trkpt lat="45.46392" lon="5.98455">
        <ele>326.29</ele>
        <time>2013-08-24T08:26:17Z</time>
      </trkpt>
      <trkpt lat="45.46375" lon="5.9844">
        <ele>334.47</ele>
        <time>2013-08-24T08:26:29Z</time>
      </trkpt>
      <trkpt lat="45.4636" lon="5.98426">
        <ele>340.24</ele>
        <time>2013-08-24T08:26:39Z</time>
      </trkpt>
      <trkpt lat="45.46343" lon="5.98413">
        <ele>337.13</ele>
        <time>2013-08-24T08:26:53Z</time>
      </trkpt>
      <trkpt lat="45.46328" lon="5.98398">
        <ele>328.77</ele>
        <time>2013-08-24T08:27:03Z</time>
      </trkpt>
      <trkpt lat="45.46314" lon="5.98381">
        <ele>327.34</ele>
        <time>2013-08-24T08:27:10Z</time>
      </trkpt>
      <trkpt lat="45.46304" lon="5.98357">
        <ele>327.7</ele>
        <time>2013-08-24T08:27:17Z</time>
      </trkpt>
      <trkpt lat="45.46296" lon="5.98333">
        <ele>324.44</ele>
        <time>2013-08-24T08:27:25Z</time>
      </trkpt>
      <trkpt lat="45.46288" lon="5.98307">
        <ele>324.44</ele>
        <time>2013-08-24T08:27:34Z</time>
      </trkpt>
      <trkpt lat="45.46284" lon="5.98281">
        <ele>326.8</ele>
        <time>2013-08-24T08:27:42Z</time>
      </trkpt>
      <trkpt lat="45.46274" lon="5.98258">
        <ele>334.39</ele>
        <time>2013-08-24T08:27:54Z</time>
      </trkpt>
      <trkpt lat="45.46271" lon="5.98233">
        <ele>328.16</ele>
        <time>2013-08-24T08:28:05Z</time>
      </trkpt>
      <trkpt lat="45.46263" lon="5.9821">
        <ele>329.16</ele>
        <time>2013-08-24T08:28:15Z</time>
      </trkpt>
      <trkpt lat="45.46251" lon="5.9823">
        <ele>342.21</ele>
        <time>2013-08-24T08:28:47Z</time>
      </trkpt>
      <trkpt lat="45.46251" lon="5.98256">
        <ele>351.73</ele>
        <time>2013-08-24T08:29:02Z</time>
      </trkpt>
      <trkpt lat="45.46252" lon="5.98283">
        <ele>353.84</ele>
        <time>2013-08-24T08:29:17Z</time>
      </trkpt>
      <trkpt lat="45.46248" lon="5.9831">
        <ele>347.83</ele>
        <time>2013-08-24T08:29:36Z</time>
      </trkpt>
      <trkpt lat="45.46243" lon="5.98348">
        <ele>360.78</ele>
        <time>2013-08-24T08:29:49Z</time>
      </trkpt>
      <trkpt lat="45.46237" lon="5.98372">
        <ele>360.03</ele>
        <time>2013-08-24T08:29:57Z</time>
      </trkpt>
      <trkpt lat="45.46223" lon="5.9839">
        <ele>364.73</ele>
        <time>2013-08-24T08:30:15Z</time>
      </trkpt>
      <trkpt lat="45.46204" lon="5.98394">
        <ele>362.7</ele>
        <time>2013-08-24T08:30:29Z</time>
      </trkpt>
      <trkpt lat="45.46189" lon="5.98406">
        <ele>373.84</ele>
        <time>2013-08-24T08:30:41Z</time>
      </trkpt>
      <trkpt lat="45.46171" lon="5.98417">
        <ele>372.85</ele>
        <time>2013-08-24T08:30:52Z</time>
      </trkpt>
      <trkpt lat="45.46157" lon="5.98436">
        <ele>384.43</ele>
        <time>2013-08-24T08:31:01Z</time>
      </trkpt>
      <trkpt lat="45.46142" lon="5.9845">
        <ele>380.8</ele>
        <time>2013-08-24T08:31:17Z</time>
      </trkpt>
      <trkpt lat="45.46126" lon="5.98464">
        <ele>378.38</ele>
        <time>2013-08-24T08:31:30Z</time>
      </trkpt>
      <trkpt lat="45.46109" lon="5.98476">
        <ele>377.48</ele>
        <time>2013-08-24T08:31:47Z</time>
      </trkpt>
      <trkpt lat="45.46092" lon="5.98481">
        <ele>384.75</ele>
        <time>2013-08-24T08:32:01Z</time>
      </trkpt>
      <trkpt lat="45.46073" lon="5.98488">
        <ele>383.54</ele>
        <time>2013-08-24T08:32:19Z</time>
      </trkpt>
      <trkpt lat="45.46054" lon="5.98491">
        <ele>380.93</ele>
        <time>2013-08-24T08:32:30Z</time>
      </trkpt>
      <trkpt lat="45.46033" lon="5.9849">
        <ele>374.06</ele>
        <time>2013-08-24T08:32:42Z</time>
      </trkpt>
      <trkpt lat="45.46018" lon="5.98473">
        <ele>397.63</ele>
        <time>2013-08-24T08:32:59Z</time>
      </trkpt>
      <trkpt lat="45.46001" lon="5.98465">
        <ele>402.13</ele>
        <time>2013-08-24T08:33:07Z</time>
      </trkpt>
      <trkpt lat="45.45988" lon="5.98446">
        <ele>402.68</ele>
        <time>2013-08-24T08:33:17Z</time>
      </trkpt>
      <trkpt lat="45.45976" lon="5.98424">
        <ele>405.59</ele>
        <time>2013-08-24T08:33:32Z</time>
      </trkpt>
      <trkpt lat="45.4597" lon="5.984">
        <ele>407.92</ele>
        <time>2013-08-24T08:33:42Z</time>
      </trkpt>
      <trkpt lat="45.45959" lon="5.98376">
        <ele>419.04</ele>
        <time>2013-08-24T08:33:50Z</time>
      </trkpt>
      <trkpt lat="45.45967" lon="5.98351">
        <ele>412.31</ele>
        <time>2013-08-24T08:34:02Z</time>
      </trkpt>
      <trkpt lat="45.45975" lon="5.98324">
        <ele>411.99</ele>
        <time>2013-08-24T08:34:14Z</time>
      </trkpt>
      <trkpt lat="45.45988" lon="5.98305">
        <ele>412.23</ele>
        <time>2013-08-24T08:34:24Z</time>
      </trkpt>
      <trkpt lat="45.45998" lon="5.98283">
        <ele>404.89</ele>
        <time>2013-08-24T08:34:33Z</time>
      </trkpt>
      <trkpt lat="45.46009" lon="5.98259">
        <ele>405.96</ele>
        <time>2013-08-24T08:34:43Z</time>
      </trkpt>
      <trkpt lat="45.46019" lon="5.98237">
        <ele>401.23</ele>
        <time>2013-08-24T08:34:51Z</time>
      </trkpt>
      <trkpt lat="45.46019" lon="5.9821">
        <ele>408.96</ele>
        <time>2013-08-24T08:35:00Z</time>
      </trkpt>
      <trkpt lat="45.46002" lon="5.98202">
        <ele>421.55</ele>
        <time>2013-08-24T08:35:12Z</time>
      </trkpt>
      <trkpt lat="45.45983" lon="5.98213">
        <ele>413.38</ele>
        <time>2013-08-24T08:35:24Z</time>
      </trkpt>
      <trkpt lat="45.45973" lon="5.98235">
        <ele>423.2</ele>
        <time>2013-08-24T08:35:38Z</time>
      </trkpt>
      <trkpt lat="45.45954" lon="5.98244">
        <ele>428.77</ele>
        <time>2013-08-24T08:35:48Z</time>
      </trkpt>
      <trkpt lat="45.45936" lon="5.98246">
        <ele>426.28</ele>
        <time>2013-08-24T08:36:01Z</time>
      </trkpt>
      <trkpt lat="45.45926" lon="5.98222">
        <ele>430.13</ele>
        <time>2013-08-24T08:36:15Z</time>
      </trkpt>
      <trkpt lat="45.45936" lon="5.98199">
        <ele>441.69</ele>
        <time>2013-08-24T08:36:26Z</time>
      </trkpt>
      <trkpt lat="45.45947" lon="5.98178">
        <ele>436.72</ele>
        <time>2013-08-24T08:36:40Z</time>
      </trkpt>
      <trkpt lat="45.45955" lon="5.98154">
        <ele>437.52</ele>
        <time>2013-08-24T08:36:56Z</time>
      </trkpt>
      <trkpt lat="45.45961" lon="5.98129">
        <ele>443.77</ele>
        <time>2013-08-24T08:37:07Z</time>
      </trkpt>
      <trkpt lat="45.4597" lon="5.98106">
        <ele>444.65</ele>
        <time>2013-08-24T08:37:20Z</time>
      </trkpt>
      <trkpt lat="45.45973" lon="5.9808">
        <ele>444.96</ele>
        <time>2013-08-24T08:37:34Z</time>
      </trkpt>
      <trkpt lat="45.45983" lon="5.98056">
        <ele>447.25</ele>
        <time>2013-08-24T08:37:47Z</time>
      </trkpt>
      <trkpt lat="45.45985" lon="5.9803">
        <ele>452.77</ele>
        <time>2013-08-24T08:38:00Z</time>
      </trkpt>
      <trkpt lat="45.45983" lon="5.98003">
        <ele>459.89</ele>
        <time>2013-08-24T08:38:15Z</time>
      </trkpt>
      <trkpt lat="45.45978" lon="5.97978">
        <ele>453.94</ele>
        <time>2013-08-24T08:38:29Z</time>
      </trkpt>
      <trkpt lat="45.45973" lon="5.97949">
        <ele>465.64</ele>
        <time>2013-08-24T08:38:48Z</time>
      </trkpt>
      <trkpt lat="45.45965" lon="5.97925">
        <ele>467.46</ele>
        <time>2013-08-24T08:38:58Z</time>
      </trkpt>
      <trkpt lat="45.45963" lon="5.97899">
        <ele>471.53</ele>
        <time>2013-08-24T08:39:09Z</time>
      </trkpt>
      <trkpt lat="45.45967" lon="5.97874">
        <ele>475.26</ele>
        <time>2013-08-24T08:39:21Z</time>
      </trkpt>
      <trkpt lat="45.4597" lon="5.97842">
        <ele>476.6</ele>
        <time>2013-08-24T08:39:31Z</time>
      </trkpt>
      <trkpt lat="45.45969" lon="5.97814">
        <ele>482.65</ele>
        <time>2013-08-24T08:39:41Z</time>
      </trkpt>
      <trkpt lat="45.4598" lon="5.97793">
        <ele>472.09</ele>
        <time>2013-08-24T08:39:55Z</time>
      </trkpt>
      <trkpt lat="45.45992" lon="5.97774">
        <ele>470.54</ele>
        <time>2013-08-24T08:40:09Z</time>
      </trkpt>
      <trkpt lat="45.46003" lon="5.97752">
        <ele>475.36</ele>
        <time>2013-08-24T08:40:22Z</time>
      </trkpt>
      <trkpt lat="45.46018" lon="5.97736">
        <ele>480.28</ele>
        <time>2013-08-24T08:40:33Z</time>
      </trkpt>
      <trkpt lat="45.46029" lon="5.97715">
        <ele>466.54</ele>
        <time>2013-08-24T08:40:45Z</time>
      </trkpt>
      <trkpt lat="45.46041" lon="5.97694">
        <ele>467.57</ele>
        <time>2013-08-24T08:40:53Z</time>
      </trkpt>
      <trkpt lat="45.46055" lon="5.97677">
        <ele>463.9</ele>
        <time>2013-08-24T08:41:03Z</time>
      </trkpt>
      <trkpt lat="45.46066" lon="5.97657">
        <ele>469.95</ele>
        <time>2013-08-24T08:41:12Z</time>
      </trkpt>
      <trkpt lat="45.46075" lon="5.97633">
        <ele>476.18</ele>
        <time>2013-08-24T08:41:24Z</time>
      </trkpt>
      <trkpt lat="45.46087" lon="5.97614">
        <ele>482.85</ele>
        <time>2013-08-24T08:41:33Z</time>
      </trkpt>
      <trkpt lat="45.46098" lon="5.9759">
        <ele>481.51</ele>
        <time>2013-08-24T08:41:43Z</time>
      </trkpt>
      <trkpt lat="45.46106" lon="5.97567">
        <ele>483.72</ele>
        <time>2013-08-24T08:41:57Z</time>
      </trkpt>
      <trkpt lat="45.46118" lon="5.97547">
        <ele>483.47</ele>
        <time>2013-08-24T08:42:06Z</time>
      </trkpt>
      <trkpt lat="45.46123" lon="5.9752">
        <ele>487.53</ele>
        <time>2013-08-24T08:42:19Z</time>
      </trkpt>
      <trkpt lat="45.46135" lon="5.975">
        <ele>494.71</ele>
        <time>2013-08-24T08:42:28Z</time>
      </trkpt>
      <trkpt lat="45.46151" lon="5.97489">
        <ele>506.81</ele>
        <time>2013-08-24T08:42:40Z</time>
      </trkpt>
      <trkpt lat="45.4617" lon="5.9748">
        <ele>508.9</ele>
        <time>2013-08-24T08:42:56Z</time>
      </trkpt>
      <trkpt lat="45.46192" lon="5.97468">
        <ele>498.61</ele>
        <time>2013-08-24T08:43:15Z</time>
      </trkpt>
      <trkpt lat="45.46209" lon="5.97459">
        <ele>497.6</ele>
        <time>2013-08-24T08:43:25Z</time>
      </trkpt>
      <trkpt lat="45.46228" lon="5.97451">
        <ele>500.91</ele>
        <time>2013-08-24T08:43:38Z</time>
      </trkpt>
      <trkpt lat="45.46245" lon="5.9744">
        <ele>505.66</ele>
        <time>2013-08-24T08:43:54Z</time>
      </trkpt>
      <trkpt lat="45.46263" lon="5.97434">
        <ele>502.57</ele>
        <time>2013-08-24T08:44:05Z</time>
      </trkpt>
      <trkpt lat="45.46279" lon="5.97421">
        <ele>502.97</ele>
        <time>2013-08-24T08:44:16Z</time>
      </trkpt>
      <trkpt lat="45.46298" lon="5.97414">
        <ele>508.23</ele>
        <time>2013-08-24T08:44:27Z</time>
      </trkpt>
      <trkpt lat="45.46314" lon="5.97401">
        <ele>516.72</ele>
        <time>2013-08-24T08:44:40Z</time>
      </trkpt>
      <trkpt lat="45.46325" lon="5.97382">
        <ele>515.22</ele>
        <time>2013-08-24T08:44:53Z</time>
      </trkpt>
      <trkpt lat="45.4634" lon="5.97364">
        <ele>511.84</ele>
        <time>2013-08-24T08:45:04Z</time>
      </trkpt>
      <trkpt lat="45.46353" lon="5.97346">
        <ele>512.54</ele>
        <time>2013-08-24T08:45:13Z</time>
      </trkpt>
      <trkpt lat="45.46362" lon="5.97324">
        <ele>505.9</ele>
        <time>2013-08-24T08:45:23Z</time>
      </trkpt>
      <trkpt lat="45.4637" lon="5.97298">
        <ele>512.74</ele>
        <time>2013-08-24T08:45:40Z</time>
      </trkpt>
      <trkpt lat="45.46383" lon="5.9728">
        <ele>507.62</ele>
        <time>2013-08-24T08:45:47Z</time>
      </trkpt>
      <trkpt lat="45.46395" lon="5.97259">
        <ele>513.79</ele>
        <time>2013-08-24T08:45:57Z</time>
      </trkpt>
      <trkpt lat="45.46408" lon="5.97239">
        <ele>516.27</ele>
        <time>2013-08-24T08:46:07Z</time>
      </trkpt>
      <trkpt lat="45.46421" lon="5.9722">
        <ele>512.94</ele>
        <time>2013-08-24T08:46:17Z</time>
      </trkpt>
      <trkpt lat="45.4644" lon="5.97215">
        <ele>523</ele>
        <time>2013-08-24T08:46:29Z</time>
      </trkpt>
      <trkpt lat="45.46456" lon="5.97227">
        <ele>523.41</ele>
        <time>2013-08-24T08:46:38Z</time>
      </trkpt>
      <trkpt lat="45.46474" lon="5.97238">
        <ele>529.15</ele>
        <time>2013-08-24T08:46:47Z</time>
      </trkpt>
      <trkpt lat="45.46493" lon="5.97247">
        <ele>529.62</ele>
        <time>2013-08-24T08:46:56Z</time>
      </trkpt>
      <trkpt lat="45.46511" lon="5.97253">
        <ele>525.78</ele>
        <time>2013-08-24T08:47:03Z</time>
      </trkpt>
      <trkpt lat="45.46529" lon="5.97264">
        <ele>527.49</ele>
        <time>2013-08-24T08:47:13Z</time>
      </trkpt>
      <trkpt lat="45.46511" lon="5.97261">
        <ele>539.34</ele>
        <time>2013-08-24T08:48:17Z</time>
      </trkpt>
      <trkpt lat="45.46529" lon="5.97267">
        <ele>536.41</ele>
        <time>2013-08-24T08:48:58Z</time>
      </trkpt>
      <trkpt lat="45.46548" lon="5.97268">
        <ele>531.82</ele>
        <time>2013-08-24T08:52:20Z</time>
      </trkpt>
      <trkpt lat="45.46568" lon="5.97267">
        <ele>535.13</ele>
        <time>2013-08-24T08:52:37Z</time>
      </trkpt>
      <trkpt lat="45.46587" lon="5.97269">
        <ele>532.05</ele>
        <time>2013-08-24T08:52:47Z</time>
      </trkpt>
      <trkpt lat="45.46605" lon="5.97271">
        <ele>532.33</ele>
        <time>2013-08-24T08:52:58Z</time>
      </trkpt>
      <trkpt lat="45.46624" lon="5.97272">
        <ele>530.26</ele>
        <time>2013-08-24T08:53:06Z</time>
      </trkpt>
      <trkpt lat="45.46635" lon="5.97251">
        <ele>531.97</ele>
        <time>2013-08-24T08:53:13Z</time>
      </trkpt>
      <trkpt lat="45.46639" lon="5.97223">
        <ele>528.3</ele>
        <time>2013-08-24T08:53:21Z</time>
      </trkpt>
      <trkpt lat="45.46626" lon="5.9708">
        <ele>561.7</ele>
        <time>2013-08-24T08:54:07Z</time>
      </trkpt>
      <trkpt lat="45.46607" lon="5.97071">
        <ele>545.93</ele>
        <time>2013-08-24T08:54:26Z</time>
      </trkpt>
      <trkpt lat="45.46587" lon="5.97071">
        <ele>542.25</ele>
        <time>2013-08-24T08:54:39Z</time>
      </trkpt>
      <trkpt lat="45.4657" lon="5.97061">
        <ele>541.46</ele>
        <time>2013-08-24T08:54:50Z</time>
      </trkpt>
      <trkpt lat="45.46555" lon="5.97044">
        <ele>545.15</ele>
        <time>2013-08-24T08:55:02Z</time>
      </trkpt>
      <trkpt lat="45.4654" lon="5.97028">
        <ele>542.47</ele>
        <time>2013-08-24T08:55:13Z</time>
      </trkpt>
      <trkpt lat="45.46535" lon="5.97002">
        <ele>555.04</ele>
        <time>2013-08-24T08:55:27Z</time>
      </trkpt>
      <trkpt lat="45.46547" lon="5.96981">
        <ele>552.22</ele>
        <time>2013-08-24T08:55:38Z</time>
      </trkpt>
      <trkpt lat="45.46563" lon="5.96969">
        <ele>553.11</ele>
        <time>2013-08-24T08:55:50Z</time>
      </trkpt>
      <trkpt lat="45.46578" lon="5.96954">
        <ele>558.35</ele>
        <time>2013-08-24T08:56:03Z</time>
      </trkpt>
      <trkpt lat="45.46593" lon="5.96939">
        <ele>560.37</ele>
        <time>2013-08-24T08:56:14Z</time>
      </trkpt>
      <trkpt lat="45.46606" lon="5.96921">
        <ele>564.03</ele>
        <time>2013-08-24T08:56:26Z</time>
      </trkpt>
      <trkpt lat="45.46611" lon="5.96895">
        <ele>561.02</ele>
        <time>2013-08-24T08:56:37Z</time>
      </trkpt>
      <trkpt lat="45.46608" lon="5.96868">
        <ele>560.47</ele>
        <time>2013-08-24T08:56:50Z</time>
      </trkpt>
      <trkpt lat="45.46605" lon="5.96842">
        <ele>563.18</ele>
        <time>2013-08-24T08:57:02Z</time>
      </trkpt>
      <trkpt lat="45.46599" lon="5.96816">
        <ele>562.16</ele>
        <time>2013-08-24T08:57:15Z</time>
      </trkpt>
      <trkpt lat="45.466" lon="5.9679">
        <ele>565.29</ele>
        <time>2013-08-24T08:57:26Z</time>
      </trkpt>
      <trkpt lat="45.46614" lon="5.96771">
        <ele>574.7</ele>
        <time>2013-08-24T08:57:38Z</time>
      </trkpt>
      <trkpt lat="45.46631" lon="5.96761">
        <ele>577.09</ele>
        <time>2013-08-24T08:57:49Z</time>
      </trkpt>
      <trkpt lat="45.4665" lon="5.96752">
        <ele>586.41</ele>
        <time>2013-08-24T08:58:01Z</time>
      </trkpt>
      <trkpt lat="45.46668" lon="5.96749">
        <ele>580.42</ele>
        <time>2013-08-24T08:58:11Z</time>
      </trkpt>
      <trkpt lat="45.46688" lon="5.96745">
        <ele>584.59</ele>
        <time>2013-08-24T08:58:21Z</time>
      </trkpt>
      <trkpt lat="45.46706" lon="5.96745">
        <ele>587.76</ele>
        <time>2013-08-24T08:58:33Z</time>
      </trkpt>
      <trkpt lat="45.46725" lon="5.96747">
        <ele>588.67</ele>
        <time>2013-08-24T08:58:42Z</time>
      </trkpt>
      <trkpt lat="45.46743" lon="5.96748">
        <ele>590.26</ele>
        <time>2013-08-24T08:58:55Z</time>
      </trkpt>
      <trkpt lat="45.46761" lon="5.9674">
        <ele>594.28</ele>
        <time>2013-08-24T08:59:05Z</time>
      </trkpt>
      <trkpt lat="45.46774" lon="5.96718">
        <ele>602.25</ele>
        <time>2013-08-24T08:59:17Z</time>
      </trkpt>
      <trkpt lat="45.46783" lon="5.96694">
        <ele>600.78</ele>
        <time>2013-08-24T08:59:28Z</time>
      </trkpt>
      <trkpt lat="45.46794" lon="5.96673">
        <ele>601.86</ele>
        <time>2013-08-24T08:59:38Z</time>
      </trkpt>
      <trkpt lat="45.46801" lon="5.96649">
        <ele>602.73</ele>
        <time>2013-08-24T08:59:48Z</time>
      </trkpt>
      <trkpt lat="45.468" lon="5.96621">
        <ele>595.18</ele>
        <time>2013-08-24T08:59:57Z</time>
      </trkpt>
      <trkpt lat="45.46782" lon="5.96614">
        <ele>593.96</ele>
        <time>2013-08-24T09:00:05Z</time>
      </trkpt>
      <trkpt lat="45.46764" lon="5.96623">
        <ele>595.79</ele>
        <time>2013-08-24T09:00:12Z</time>
      </trkpt>
      <trkpt lat="45.46747" lon="5.96633">
        <ele>598.53</ele>
        <time>2013-08-24T09:00:20Z</time>
      </trkpt>
      <trkpt lat="45.46729" lon="5.96642">
        <ele>601.66</ele>
        <time>2013-08-24T09:00:29Z</time>
      </trkpt>
      <trkpt lat="45.4671" lon="5.96647">
        <ele>601.2</ele>
        <time>2013-08-24T09:00:38Z</time>
      </trkpt>
      <trkpt lat="45.4669" lon="5.9665">
        <ele>600.02</ele>
        <time>2013-08-24T09:00:47Z</time>
      </trkpt>
      <trkpt lat="45.46672" lon="5.96653">
        <ele>601.51</ele>
        <time>2013-08-24T09:00:55Z</time>
      </trkpt>
      <trkpt lat="45.46654" lon="5.96652">
        <ele>604.38</ele>
        <time>2013-08-24T09:01:03Z</time>
      </trkpt>
      <trkpt lat="45.46636" lon="5.96648">
        <ele>602.31</ele>
        <time>2013-08-24T09:01:12Z</time>
      </trkpt>
      <trkpt lat="45.46617" lon="5.96645">
        <ele>604.71</ele>
        <time>2013-08-24T09:01:21Z</time>
      </trkpt>
      <trkpt lat="45.46597" lon="5.96642">
        <ele>604.39</ele>
        <time>2013-08-24T09:01:32Z</time>
      </trkpt>
      <trkpt lat="45.46577" lon="5.96637">
        <ele>604.58</ele>
        <time>2013-08-24T09:01:40Z</time>
      </trkpt>
      <trkpt lat="45.46558" lon="5.96636">
        <ele>608.48</ele>
        <time>2013-08-24T09:01:47Z</time>
      </trkpt>
      <trkpt lat="45.46539" lon="5.96644">
        <ele>615.09</ele>
        <time>2013-08-24T09:01:57Z</time>
      </trkpt>
      <trkpt lat="45.46522" lon="5.96654">
        <ele>613.59</ele>
        <time>2013-08-24T09:02:07Z</time>
      </trkpt>
      <trkpt lat="45.46504" lon="5.96656">
        <ele>614.78</ele>
        <time>2013-08-24T09:02:21Z</time>
      </trkpt>
      <trkpt lat="45.46485" lon="5.96653">
        <ele>618.81</ele>
        <time>2013-08-24T09:02:34Z</time>
      </trkpt>
      <trkpt lat="45.46467" lon="5.96649">
        <ele>626.11</ele>
        <time>2013-08-24T09:02:46Z</time>
      </trkpt>
      <trkpt lat="45.46449" lon="5.96644">
        <ele>628.97</ele>
        <time>2013-08-24T09:02:58Z</time>
      </trkpt>
      <trkpt lat="45.46431" lon="5.96641">
        <ele>628.07</ele>
        <time>2013-08-24T09:03:14Z</time>
      </trkpt>
      <trkpt lat="45.46413" lon="5.96637">
        <ele>625.58</ele>
        <time>2013-08-24T09:03:30Z</time>
      </trkpt>
      <trkpt lat="45.46393" lon="5.96637">
        <ele>639.08</ele>
        <time>2013-08-24T09:03:46Z</time>
      </trkpt>
      <trkpt lat="45.46374" lon="5.96639">
        <ele>641.04</ele>
        <time>2013-08-24T09:03:58Z</time>
      </trkpt>
      <trkpt lat="45.46355" lon="5.96643">
        <ele>641.88</ele>
        <time>2013-08-24T09:04:10Z</time>
      </trkpt>
      <trkpt lat="45.46337" lon="5.96647">
        <ele>641.13</ele>
        <time>2013-08-24T09:04:21Z</time>
      </trkpt>
      <trkpt lat="45.46318" lon="5.96642">
        <ele>642.18</ele>
        <time>2013-08-24T09:04:32Z</time>
      </trkpt>
      <trkpt lat="45.463" lon="5.96636">
        <ele>644.89</ele>
        <time>2013-08-24T09:04:43Z</time>
      </trkpt>
      <trkpt lat="45.46282" lon="5.96629">
        <ele>643.27</ele>
        <time>2013-08-24T09:04:54Z</time>
      </trkpt>
      <trkpt lat="45.46263" lon="5.96627">
        <ele>644.55</ele>
        <time>2013-08-24T09:05:05Z</time>
      </trkpt>
      <trkpt lat="45.46245" lon="5.96625">
        <ele>644.43</ele>
        <time>2013-08-24T09:05:16Z</time>
      </trkpt>
      <trkpt lat="45.46227" lon="5.96621">
        <ele>651.74</ele>
        <time>2013-08-24T09:05:28Z</time>
      </trkpt>
      <trkpt lat="45.46208" lon="5.96618">
        <ele>651.99</ele>
        <time>2013-08-24T09:05:42Z</time>
      </trkpt>
      <trkpt lat="45.46189" lon="5.96619">
        <ele>653.26</ele>
        <time>2013-08-24T09:05:52Z</time>
      </trkpt>
      <trkpt lat="45.46171" lon="5.96623">
        <ele>654.85</ele>
        <time>2013-08-24T09:06:03Z</time>
      </trkpt>
      <trkpt lat="45.46154" lon="5.96634">
        <ele>659.09</ele>
        <time>2013-08-24T09:06:14Z</time>
      </trkpt>
      <trkpt lat="45.46137" lon="5.96648">
        <ele>659.51</ele>
        <time>2013-08-24T09:06:27Z</time>
      </trkpt>
      <trkpt lat="45.46121" lon="5.96661">
        <ele>662.59</ele>
        <time>2013-08-24T09:06:37Z</time>
      </trkpt>
      <trkpt lat="45.46104" lon="5.96675">
        <ele>661.99</ele>
        <time>2013-08-24T09:06:48Z</time>
      </trkpt>
      <trkpt lat="45.46087" lon="5.96685">
        <ele>666.77</ele>
        <time>2013-08-24T09:07:00Z</time>
      </trkpt>
      <trkpt lat="45.46069" lon="5.96697">
        <ele>670.42</ele>
        <time>2013-08-24T09:07:12Z</time>
      </trkpt>
      <trkpt lat="45.46052" lon="5.96706">
        <ele>667.69</ele>
        <time>2013-08-24T09:07:24Z</time>
      </trkpt>
      <trkpt lat="45.46036" lon="5.96717">
        <ele>668.4</ele>
        <time>2013-08-24T09:07:34Z</time>
      </trkpt>
      <trkpt lat="45.46018" lon="5.96729">
        <ele>673.79</ele>
        <time>2013-08-24T09:07:47Z</time>
      </trkpt>
      <trkpt lat="45.46002" lon="5.96743">
        <ele>679.28</ele>
        <time>2013-08-24T09:07:58Z</time>
      </trkpt>
      <trkpt lat="45.45984" lon="5.96752">
        <ele>680.03</ele>
        <time>2013-08-24T09:08:11Z</time>
      </trkpt>
      <trkpt lat="45.45966" lon="5.96753">
        <ele>686.28</ele>
        <time>2013-08-24T09:08:25Z</time>
      </trkpt>
      <trkpt lat="45.45948" lon="5.96746">
        <ele>685.02</ele>
        <time>2013-08-24T09:08:39Z</time>
      </trkpt>
      <trkpt lat="45.4593" lon="5.96743">
        <ele>683.85</ele>
        <time>2013-08-24T09:08:51Z</time>
      </trkpt>
      <trkpt lat="45.45915" lon="5.96729">
        <ele>681.94</ele>
        <time>2013-08-24T09:09:04Z</time>
      </trkpt>
      <trkpt lat="45.45906" lon="5.96704">
        <ele>686.59</ele>
        <time>2013-08-24T09:09:15Z</time>
      </trkpt>
      <trkpt lat="45.459" lon="5.96677">
        <ele>690.31</ele>
        <time>2013-08-24T09:09:24Z</time>
      </trkpt>
      <trkpt lat="45.45893" lon="5.96652">
        <ele>691.32</ele>
        <time>2013-08-24T09:09:32Z</time>
      </trkpt>
      <trkpt lat="45.45882" lon="5.9663">
        <ele>690.97</ele>
        <time>2013-08-24T09:09:43Z</time>
      </trkpt>
      <trkpt lat="45.45871" lon="5.9661">
        <ele>686.86</ele>
        <time>2013-08-24T09:09:50Z</time>
      </trkpt>
      <trkpt lat="45.45861" lon="5.96585">
        <ele>684.35</ele>
        <time>2013-08-24T09:09:58Z</time>
      </trkpt>
      <trkpt lat="45.45854" lon="5.96561">
        <ele>684.02</ele>
        <time>2013-08-24T09:10:07Z</time>
      </trkpt>
      <trkpt lat="45.45846" lon="5.96537">
        <ele>691.78</ele>
        <time>2013-08-24T09:10:16Z</time>
      </trkpt>
      <trkpt lat="45.45841" lon="5.96512">
        <ele>688.65</ele>
        <time>2013-08-24T09:10:25Z</time>
      </trkpt>
      <trkpt lat="45.45833" lon="5.96487">
        <ele>689.92</ele>
        <time>2013-08-24T09:10:35Z</time>
      </trkpt>
      <trkpt lat="45.4583" lon="5.96461">
        <ele>690.61</ele>
        <time>2013-08-24T09:10:44Z</time>
      </trkpt>
      <trkpt lat="45.45832" lon="5.96435">
        <ele>707.35</ele>
        <time>2013-08-24T09:10:54Z</time>
      </trkpt>
      <trkpt lat="45.45835" lon="5.96407">
        <ele>702.54</ele>
        <time>2013-08-24T09:11:02Z</time>
      </trkpt>
      <trkpt lat="45.4584" lon="5.96382">
        <ele>695.58</ele>
        <time>2013-08-24T09:11:12Z</time>
      </trkpt>
      <trkpt lat="45.45842" lon="5.96354">
        <ele>696.08</ele>
        <time>2013-08-24T09:11:22Z</time>
      </trkpt>
      <trkpt lat="45.45842" lon="5.96327">
        <ele>693.77</ele>
        <time>2013-08-24T09:11:31Z</time>
      </trkpt>
      <trkpt lat="45.45835" lon="5.96303">
        <ele>695.23</ele>
        <time>2013-08-24T09:11:39Z</time>
      </trkpt>
      <trkpt lat="45.45827" lon="5.9628">
        <ele>697.76</ele>
        <time>2013-08-24T09:11:48Z</time>
      </trkpt>
      <trkpt lat="45.45819" lon="5.96255">
        <ele>703.25</ele>
        <time>2013-08-24T09:11:57Z</time>
      </trkpt>
      <trkpt lat="45.45812" lon="5.96228">
        <ele>703.74</ele>
        <time>2013-08-24T09:12:06Z</time>
      </trkpt>
      <trkpt lat="45.45804" lon="5.96204">
        <ele>699.66</ele>
        <time>2013-08-24T09:12:15Z</time>
      </trkpt>
      <trkpt lat="45.45799" lon="5.96177">
        <ele>707.13</ele>
        <time>2013-08-24T09:12:25Z</time>
      </trkpt>
      <trkpt lat="45.45795" lon="5.9615">
        <ele>705.3</ele>
        <time>2013-08-24T09:12:34Z</time>
      </trkpt>
      <trkpt lat="45.45792" lon="5.96123">
        <ele>701.02</ele>
        <time>2013-08-24T09:12:43Z</time>
      </trkpt>
      <trkpt lat="45.4579" lon="5.96097">
        <ele>704.95</ele>
        <time>2013-08-24T09:12:52Z</time>
      </trkpt>
      <trkpt lat="45.4579" lon="5.96069">
        <ele>710.79</ele>
        <time>2013-08-24T09:13:01Z</time>
      </trkpt>
      <trkpt lat="45.45792" lon="5.96042">
        <ele>715.45</ele>
        <time>2013-08-24T09:13:10Z</time>
      </trkpt>
      <trkpt lat="45.45793" lon="5.96014">
        <ele>719.45</ele>
        <time>2013-08-24T09:13:19Z</time>
      </trkpt>
      <trkpt lat="45.45788" lon="5.95987">
        <ele>719.8</ele>
        <time>2013-08-24T09:13:28Z</time>
      </trkpt>
      <trkpt lat="45.45776" lon="5.95965">
        <ele>715.19</ele>
        <time>2013-08-24T09:13:37Z</time>
      </trkpt>
      <trkpt lat="45.45764" lon="5.95945">
        <ele>715.65</ele>
        <time>2013-08-24T09:13:47Z</time>
      </trkpt>
      <trkpt lat="45.45752" lon="5.95923">
        <ele>707.5</ele>
        <time>2013-08-24T09:13:56Z</time>
      </trkpt>
      <trkpt lat="45.45751" lon="5.95897">
        <ele>704.71</ele>
        <time>2013-08-24T09:14:04Z</time>
      </trkpt>
      <trkpt lat="45.45751" lon="5.9587">
        <ele>698.15</ele>
        <time>2013-08-24T09:14:17Z</time>
      </trkpt>
      <trkpt lat="45.45745" lon="5.95845">
        <ele>690.2</ele>
        <time>2013-08-24T09:14:24Z</time>
      </trkpt>
      <trkpt lat="45.45733" lon="5.95824">
        <ele>696.18</ele>
        <time>2013-08-24T09:14:31Z</time>
      </trkpt>
      <trkpt lat="45.45727" lon="5.958">
        <ele>711.77</ele>
        <time>2013-08-24T09:14:42Z</time>
      </trkpt>
      <trkpt lat="45.45734" lon="5.95775">
        <ele>723.72</ele>
        <time>2013-08-24T09:14:51Z</time>
      </trkpt>
      <trkpt lat="45.45733" lon="5.95747">
        <ele>721.87</ele>
        <time>2013-08-24T09:15:00Z</time>
      </trkpt>
      <trkpt lat="45.4572" lon="5.95727">
        <ele>716.04</ele>
        <time>2013-08-24T09:15:06Z</time>
      </trkpt>
      <trkpt lat="45.45705" lon="5.95711">
        <ele>701.24</ele>
        <time>2013-08-24T09:15:16Z</time>
      </trkpt>
      <trkpt lat="45.45693" lon="5.95691">
        <ele>702.83</ele>
        <time>2013-08-24T09:15:24Z</time>
      </trkpt>
      <trkpt lat="45.45682" lon="5.95668">
        <ele>702.77</ele>
        <time>2013-08-24T09:15:34Z</time>
      </trkpt>
      <trkpt lat="45.45667" lon="5.95648">
        <ele>694.56</ele>
        <time>2013-08-24T09:15:42Z</time>
      </trkpt>
      <trkpt lat="45.45656" lon="5.95625">
        <ele>700.17</ele>
        <time>2013-08-24T09:15:50Z</time>
      </trkpt>
      <trkpt lat="45.45644" lon="5.95602">
        <ele>703.8</ele>
        <time>2013-08-24T09:15:58Z</time>
      </trkpt>
      <trkpt lat="45.45629" lon="5.95585">
        <ele>718.73</ele>
        <time>2013-08-24T09:16:05Z</time>
      </trkpt>
      <trkpt lat="45.45618" lon="5.95562">
        <ele>725.29</ele>
        <time>2013-08-24T09:16:13Z</time>
      </trkpt>
      <trkpt lat="45.45605" lon="5.95542">
        <ele>721.84</ele>
        <time>2013-08-24T09:16:20Z</time>
      </trkpt>
      <trkpt lat="45.45591" lon="5.95524">
        <ele>717.95</ele>
        <time>2013-08-24T09:16:27Z</time>
      </trkpt>
      <trkpt lat="45.45578" lon="5.95506">
        <ele>714.08</ele>
        <time>2013-08-24T09:16:33Z</time>
      </trkpt>
      <trkpt lat="45.45561" lon="5.95494">
        <ele>710.89</ele>
        <time>2013-08-24T09:16:41Z</time>
      </trkpt>
      <trkpt lat="45.45546" lon="5.95478">
        <ele>714.17</ele>
        <time>2013-08-24T09:16:48Z</time>
      </trkpt>
      <trkpt lat="45.45529" lon="5.95492">
        <ele>723.09</ele>
        <time>2013-08-24T09:16:54Z</time>
      </trkpt>
      <trkpt lat="45.45523" lon="5.95521">
        <ele>733.48</ele>
        <time>2013-08-24T09:17:00Z</time>
      </trkpt>
      <trkpt lat="45.45524" lon="5.95548">
        <ele>736.8</ele>
        <time>2013-08-24T09:17:04Z</time>
      </trkpt>
      <trkpt lat="45.45525" lon="5.95575">
        <ele>748.47</ele>
        <time>2013-08-24T09:17:09Z</time>
      </trkpt>
      <trkpt lat="45.45523" lon="5.95603">
        <ele>757.25</ele>
        <time>2013-08-24T09:17:16Z</time>
      </trkpt>
      <trkpt lat="45.45508" lon="5.95624">
        <ele>751.5</ele>
        <time>2013-08-24T09:17:21Z</time>
      </trkpt>
      <trkpt lat="45.45493" lon="5.95639">
        <ele>746.28</ele>
        <time>2013-08-24T09:17:27Z</time>
      </trkpt>
      <trkpt lat="45.45483" lon="5.95664">
        <ele>746.78</ele>
        <time>2013-08-24T09:17:36Z</time>
      </trkpt>
      <trkpt lat="45.45486" lon="5.9569">
        <ele>742.24</ele>
        <time>2013-08-24T09:17:43Z</time>
      </trkpt>
      <trkpt lat="45.45486" lon="5.95717">
        <ele>740.15</ele>
        <time>2013-08-24T09:17:50Z</time>
      </trkpt>
      <trkpt lat="45.45478" lon="5.95743">
        <ele>744.41</ele>
        <time>2013-08-24T09:17:58Z</time>
      </trkpt>
      <trkpt lat="45.45465" lon="5.95765">
        <ele>748.71</ele>
        <time>2013-08-24T09:18:04Z</time>
      </trkpt>
      <trkpt lat="45.45452" lon="5.95784">
        <ele>749.4</ele>
        <time>2013-08-24T09:18:09Z</time>
      </trkpt>
      <trkpt lat="45.45439" lon="5.95805">
        <ele>754.85</ele>
        <time>2013-08-24T09:18:17Z</time>
      </trkpt>
      <trkpt lat="45.45427" lon="5.95824">
        <ele>760.09</ele>
        <time>2013-08-24T09:18:24Z</time>
      </trkpt>
      <trkpt lat="45.45425" lon="5.95854">
        <ele>760.27</ele>
        <time>2013-08-24T09:18:31Z</time>
      </trkpt>
      <trkpt lat="45.45424" lon="5.9588">
        <ele>754.19</ele>
        <time>2013-08-24T09:18:39Z</time>
      </trkpt>
      <trkpt lat="45.45417" lon="5.95904">
        <ele>747.14</ele>
        <time>2013-08-24T09:18:48Z</time>
      </trkpt>
      <trkpt lat="45.45412" lon="5.95929">
        <ele>748.38</ele>
        <time>2013-08-24T09:18:57Z</time>
      </trkpt>
      <trkpt lat="45.45405" lon="5.95953">
        <ele>742.88</ele>
        <time>2013-08-24T09:19:05Z</time>
      </trkpt>
      <trkpt lat="45.45396" lon="5.95978">
        <ele>743.01</ele>
        <time>2013-08-24T09:19:13Z</time>
      </trkpt>
      <trkpt lat="45.45387" lon="5.96001">
        <ele>748.05</ele>
        <time>2013-08-24T09:19:19Z</time>
      </trkpt>
      <trkpt lat="45.45371" lon="5.96019">
        <ele>750.82</ele>
        <time>2013-08-24T09:19:26Z</time>
      </trkpt>
      <trkpt lat="45.45354" lon="5.96032">
        <ele>753.1</ele>
        <time>2013-08-24T09:19:33Z</time>
      </trkpt>
      <trkpt lat="45.45347" lon="5.96058">
        <ele>759.42</ele>
        <time>2013-08-24T09:19:40Z</time>
      </trkpt>
      <trkpt lat="45.45349" lon="5.96085">
        <ele>757.35</ele>
        <time>2013-08-24T09:19:47Z</time>
      </trkpt>
      <trkpt lat="45.45348" lon="5.96112">
        <ele>757.12</ele>
        <time>2013-08-24T09:19:53Z</time>
      </trkpt>
      <trkpt lat="45.45345" lon="5.96139">
        <ele>755.79</ele>
        <time>2013-08-24T09:20:00Z</time>
      </trkpt>
      <trkpt lat="45.45341" lon="5.96167">
        <ele>750.84</ele>
        <time>2013-08-24T09:20:07Z</time>
      </trkpt>
      <trkpt lat="45.45338" lon="5.96194">
        <ele>755.71</ele>
        <time>2013-08-24T09:20:13Z</time>
      </trkpt>
      <trkpt lat="45.45336" lon="5.96225">
        <ele>759.38</ele>
        <time>2013-08-24T09:20:19Z</time>
      </trkpt>
      <trkpt lat="45.45337" lon="5.96251">
        <ele>765.93</ele>
        <time>2013-08-24T09:20:26Z</time>
      </trkpt>
      <trkpt lat="45.45323" lon="5.9627">
        <ele>768.27</ele>
        <time>2013-08-24T09:20:32Z</time>
      </trkpt>
      <trkpt lat="45.45307" lon="5.96284">
        <ele>765.07</ele>
        <time>2013-08-24T09:20:38Z</time>
      </trkpt>
      <trkpt lat="45.4529" lon="5.96298">
        <ele>763.98</ele>
        <time>2013-08-24T09:20:45Z</time>
      </trkpt>
      <trkpt lat="45.45278" lon="5.9632">
        <ele>755.43</ele>
        <time>2013-08-24T09:20:51Z</time>
      </trkpt>
      <trkpt lat="45.45271" lon="5.96344">
        <ele>757.21</ele>
        <time>2013-08-24T09:20:57Z</time>
      </trkpt>
      <trkpt lat="45.45265" lon="5.96371">
        <ele>757.49</ele>
        <time>2013-08-24T09:21:02Z</time>
      </trkpt>
      <trkpt lat="45.45257" lon="5.96394">
        <ele>760.03</ele>
        <time>2013-08-24T09:21:07Z</time>
      </trkpt>
      <trkpt lat="45.45245" lon="5.96414">
        <ele>763.63</ele>
        <time>2013-08-24T09:21:12Z</time>
      </trkpt>
      <trkpt lat="45.45231" lon="5.96433">
        <ele>765.87</ele>
        <time>2013-08-24T09:21:18Z</time>
      </trkpt>
      <trkpt lat="45.45218" lon="5.96453">
        <ele>767.74</ele>
        <time>2013-08-24T09:21:24Z</time>
      </trkpt>
      <trkpt lat="45.45202" lon="5.96472">
        <ele>768.43</ele>
        <time>2013-08-24T09:21:29Z</time>
      </trkpt>
      <trkpt lat="45.45188" lon="5.96491">
        <ele>769.74</ele>
        <time>2013-08-24T09:21:34Z</time>
      </trkpt>
      <trkpt lat="45.4517" lon="5.96504">
        <ele>775.32</ele>
        <time>2013-08-24T09:21:42Z</time>
      </trkpt>
      <trkpt lat="45.45149" lon="5.96503">
        <ele>774.66</ele>
        <time>2013-08-24T09:21:50Z</time>
      </trkpt>
      <trkpt lat="45.45131" lon="5.96498">
        <ele>773.18</ele>
        <time>2013-08-24T09:21:57Z</time>
      </trkpt>
      <trkpt lat="45.45113" lon="5.96486">
        <ele>768.62</ele>
        <time>2013-08-24T09:22:04Z</time>
      </trkpt>
      <trkpt lat="45.451" lon="5.96467">
        <ele>771.8</ele>
        <time>2013-08-24T09:22:12Z</time>
      </trkpt>
      <trkpt lat="45.45089" lon="5.96443">
        <ele>778.39</ele>
        <time>2013-08-24T09:22:21Z</time>
      </trkpt>
      <trkpt lat="45.45079" lon="5.96419">
        <ele>770.52</ele>
        <time>2013-08-24T09:22:29Z</time>
      </trkpt>
      <trkpt lat="45.4507" lon="5.96396">
        <ele>774.5</ele>
        <time>2013-08-24T09:22:37Z</time>
      </trkpt>
      <trkpt lat="45.45057" lon="5.96378">
        <ele>794.31</ele>
        <time>2013-08-24T09:22:46Z</time>
      </trkpt>
      <trkpt lat="45.45044" lon="5.96359">
        <ele>789.19</ele>
        <time>2013-08-24T09:22:54Z</time>
      </trkpt>
      <trkpt lat="45.4503" lon="5.96339">
        <ele>776.78</ele>
        <time>2013-08-24T09:23:02Z</time>
      </trkpt>
      <trkpt lat="45.45017" lon="5.96317">
        <ele>772.31</ele>
        <time>2013-08-24T09:23:10Z</time>
      </trkpt>
      <trkpt lat="45.45005" lon="5.96296">
        <ele>776.34</ele>
        <time>2013-08-24T09:23:20Z</time>
      </trkpt>
      <trkpt lat="45.44987" lon="5.96287">
        <ele>789.97</ele>
        <time>2013-08-24T09:23:31Z</time>
      </trkpt>
      <trkpt lat="45.44973" lon="5.96306">
        <ele>789.65</ele>
        <time>2013-08-24T09:23:41Z</time>
      </trkpt>
      <trkpt lat="45.44965" lon="5.96331">
        <ele>792.22</ele>
        <time>2013-08-24T09:23:50Z</time>
      </trkpt>
      <trkpt lat="45.44953" lon="5.96353">
        <ele>798.46</ele>
        <time>2013-08-24T09:23:59Z</time>
      </trkpt>
      <trkpt lat="45.44937" lon="5.96371">
        <ele>803.97</ele>
        <time>2013-08-24T09:24:08Z</time>
      </trkpt>
      <trkpt lat="45.4492" lon="5.96383">
        <ele>809.8</ele>
        <time>2013-08-24T09:24:17Z</time>
      </trkpt>
      <trkpt lat="45.44913" lon="5.96407">
        <ele>806.35</ele>
        <time>2013-08-24T09:24:28Z</time>
      </trkpt>
      <trkpt lat="45.44912" lon="5.96433">
        <ele>798.03</ele>
        <time>2013-08-24T09:24:37Z</time>
      </trkpt>
      <trkpt lat="45.44923" lon="5.96455">
        <ele>803.92</ele>
        <time>2013-08-24T09:24:46Z</time>
      </trkpt>
      <trkpt lat="45.44934" lon="5.96476">
        <ele>807.37</ele>
        <time>2013-08-24T09:24:56Z</time>
      </trkpt>
      <trkpt lat="45.44935" lon="5.96505">
        <ele>809.01</ele>
        <time>2013-08-24T09:25:06Z</time>
      </trkpt>
      <trkpt lat="45.44926" lon="5.96528">
        <ele>815.07</ele>
        <time>2013-08-24T09:25:15Z</time>
      </trkpt>
      <trkpt lat="45.44916" lon="5.96549">
        <ele>810.29</ele>
        <time>2013-08-24T09:25:24Z</time>
      </trkpt>
      <trkpt lat="45.44903" lon="5.96569">
        <ele>807.94</ele>
        <time>2013-08-24T09:25:34Z</time>
      </trkpt>
      <trkpt lat="45.44887" lon="5.96586">
        <ele>808.89</ele>
        <time>2013-08-24T09:25:43Z</time>
      </trkpt>
      <trkpt lat="45.44871" lon="5.96601">
        <ele>811.48</ele>
        <time>2013-08-24T09:25:53Z</time>
      </trkpt>
      <trkpt lat="45.44856" lon="5.96616">
        <ele>812.01</ele>
        <time>2013-08-24T09:26:02Z</time>
      </trkpt>
      <trkpt lat="45.4484" lon="5.96634">
        <ele>813.32</ele>
        <time>2013-08-24T09:26:12Z</time>
      </trkpt>
      <trkpt lat="45.44826" lon="5.9665">
        <ele>815.82</ele>
        <time>2013-08-24T09:26:23Z</time>
      </trkpt>
      <trkpt lat="45.44809" lon="5.96663">
        <ele>817.79</ele>
        <time>2013-08-24T09:26:34Z</time>
      </trkpt>
      <trkpt lat="45.4479" lon="5.96665">
        <ele>819.22</ele>
        <time>2013-08-24T09:26:44Z</time>
      </trkpt>
      <trkpt lat="45.44772" lon="5.96658">
        <ele>822.94</ele>
        <time>2013-08-24T09:26:54Z</time>
      </trkpt>
      <trkpt lat="45.44754" lon="5.96648">
        <ele>818.45</ele>
        <time>2013-08-24T09:27:06Z</time>
      </trkpt>
      <trkpt lat="45.44735" lon="5.96643">
        <ele>825.39</ele>
        <time>2013-08-24T09:27:17Z</time>
      </trkpt>
      <trkpt lat="45.44717" lon="5.9664">
        <ele>824.48</ele>
        <time>2013-08-24T09:27:27Z</time>
      </trkpt>
      <trkpt lat="45.44698" lon="5.9664">
        <ele>823.57</ele>
        <time>2013-08-24T09:27:37Z</time>
      </trkpt>
      <trkpt lat="45.4468" lon="5.96639">
        <ele>833.71</ele>
        <time>2013-08-24T09:27:49Z</time>
      </trkpt>
      <trkpt lat="45.4466" lon="5.96633">
        <ele>827.77</ele>
        <time>2013-08-24T09:27:59Z</time>
      </trkpt>
      <trkpt lat="45.44643" lon="5.96619">
        <ele>835.86</ele>
        <time>2013-08-24T09:28:08Z</time>
      </trkpt>
      <trkpt lat="45.44628" lon="5.96604">
        <ele>838.71</ele>
        <time>2013-08-24T09:28:18Z</time>
      </trkpt>
      <trkpt lat="45.44615" lon="5.96586">
        <ele>842.48</ele>
        <time>2013-08-24T09:28:27Z</time>
      </trkpt>
      <trkpt lat="45.44599" lon="5.96571">
        <ele>841.3</ele>
        <time>2013-08-24T09:28:37Z</time>
      </trkpt>
      <trkpt lat="45.44583" lon="5.96555">
        <ele>842.91</ele>
        <time>2013-08-24T09:28:47Z</time>
      </trkpt>
      <trkpt lat="45.44567" lon="5.96543">
        <ele>841.53</ele>
        <time>2013-08-24T09:28:56Z</time>
      </trkpt>
      <trkpt lat="45.44549" lon="5.96534">
        <ele>845.11</ele>
        <time>2013-08-24T09:29:05Z</time>
      </trkpt>
      <trkpt lat="45.44531" lon="5.96525">
        <ele>845.49</ele>
        <time>2013-08-24T09:29:14Z</time>
      </trkpt>
      <trkpt lat="45.44513" lon="5.96515">
        <ele>845.64</ele>
        <time>2013-08-24T09:29:23Z</time>
      </trkpt>
      <trkpt lat="45.44496" lon="5.96505">
        <ele>848.62</ele>
        <time>2013-08-24T09:29:31Z</time>
      </trkpt>
      <trkpt lat="45.44478" lon="5.96491">
        <ele>848.97</ele>
        <time>2013-08-24T09:29:40Z</time>
      </trkpt>
      <trkpt lat="45.44468" lon="5.96468">
        <ele>849.23</ele>
        <time>2013-08-24T09:29:48Z</time>
      </trkpt>
      <trkpt lat="45.44464" lon="5.96441">
        <ele>848.65</ele>
        <time>2013-08-24T09:29:57Z</time>
      </trkpt>
      <trkpt lat="45.44461" lon="5.96414">
        <ele>846.59</ele>
        <time>2013-08-24T09:30:05Z</time>
      </trkpt>
      <trkpt lat="45.44446" lon="5.96393">
        <ele>851.33</ele>
        <time>2013-08-24T09:30:14Z</time>
      </trkpt>
      <trkpt lat="45.44434" lon="5.96372">
        <ele>853</ele>
        <time>2013-08-24T09:30:19Z</time>
      </trkpt>
      <trkpt lat="45.44423" lon="5.96351">
        <ele>855.08</ele>
        <time>2013-08-24T09:30:25Z</time>
      </trkpt>
      <trkpt lat="45.4441" lon="5.96329">
        <ele>854.18</ele>
        <time>2013-08-24T09:30:32Z</time>
      </trkpt>
      <trkpt lat="45.44395" lon="5.96306">
        <ele>845.79</ele>
        <time>2013-08-24T09:30:39Z</time>
      </trkpt>
      <trkpt lat="45.44378" lon="5.96284">
        <ele>843.05</ele>
        <time>2013-08-24T09:30:43Z</time>
      </trkpt>
      <trkpt lat="45.44362" lon="5.96259">
        <ele>843.47</ele>
        <time>2013-08-24T09:30:47Z</time>
      </trkpt>
      <trkpt lat="45.44346" lon="5.96233">
        <ele>846.35</ele>
        <time>2013-08-24T09:30:51Z</time>
      </trkpt>
      <trkpt lat="45.44335" lon="5.96207">
        <ele>849.03</ele>
        <time>2013-08-24T09:30:54Z</time>
      </trkpt>
      <trkpt lat="45.44332" lon="5.96174">
        <ele>849.41</ele>
        <time>2013-08-24T09:30:57Z</time>
      </trkpt>
      <trkpt lat="45.44326" lon="5.96139">
        <ele>848.71</ele>
        <time>2013-08-24T09:31:00Z</time>
      </trkpt>
      <trkpt lat="45.44311" lon="5.96114">
        <ele>848.5</ele>
        <time>2013-08-24T09:31:03Z</time>
      </trkpt>
      <trkpt lat="45.44296" lon="5.96094">
        <ele>849.15</ele>
        <time>2013-08-24T09:31:06Z</time>
      </trkpt>
      <trkpt lat="45.44277" lon="5.96074">
        <ele>848.9</ele>
        <time>2013-08-24T09:31:10Z</time>
      </trkpt>
      <trkpt lat="45.44259" lon="5.96059">
        <ele>849.55</ele>
        <time>2013-08-24T09:31:14Z</time>
      </trkpt>
      <trkpt lat="45.44245" lon="5.96041">
        <ele>848.62</ele>
        <time>2013-08-24T09:31:18Z</time>
      </trkpt>
      <trkpt lat="45.44231" lon="5.96018">
        <ele>845.24</ele>
        <time>2013-08-24T09:31:23Z</time>
      </trkpt>
      <trkpt lat="45.44216" lon="5.96">
        <ele>844.64</ele>
        <time>2013-08-24T09:31:29Z</time>
      </trkpt>
      <trkpt lat="45.44199" lon="5.95986">
        <ele>849.41</ele>
        <time>2013-08-24T09:31:37Z</time>
      </trkpt>
      <trkpt lat="45.44182" lon="5.95973">
        <ele>850.98</ele>
        <time>2013-08-24T09:31:43Z</time>
      </trkpt>
      <trkpt lat="45.44163" lon="5.95944">
        <ele>839.37</ele>
        <time>2013-08-24T09:31:54Z</time>
      </trkpt>
      <trkpt lat="45.44151" lon="5.95918">
        <ele>838.74</ele>
        <time>2013-08-24T09:32:00Z</time>
      </trkpt>
      <trkpt lat="45.44141" lon="5.9589">
        <ele>845.91</ele>
        <time>2013-08-24T09:32:04Z</time>
      </trkpt>
      <trkpt lat="45.44131" lon="5.95864">
        <ele>854.71</ele>
        <time>2013-08-24T09:32:08Z</time>
      </trkpt>
      <trkpt lat="45.44118" lon="5.9584">
        <ele>863.03</ele>
        <time>2013-08-24T09:32:14Z</time>
      </trkpt>
      <trkpt lat="45.44099" lon="5.95838">
        <ele>865.1</ele>
        <time>2013-08-24T09:32:20Z</time>
      </trkpt>
      <trkpt lat="45.4408" lon="5.95835">
        <ele>855.78</ele>
        <time>2013-08-24T09:32:24Z</time>
      </trkpt>
      <trkpt lat="45.44059" lon="5.95825">
        <ele>855.25</ele>
        <time>2013-08-24T09:32:29Z</time>
      </trkpt>
      <trkpt lat="45.44043" lon="5.95808">
        <ele>848.7</ele>
        <time>2013-08-24T09:32:34Z</time>
      </trkpt>
      <trkpt lat="45.44032" lon="5.95781">
        <ele>840.4</ele>
        <time>2013-08-24T09:32:40Z</time>
      </trkpt>
      <trkpt lat="45.44017" lon="5.95749">
        <ele>830.08</ele>
        <time>2013-08-24T09:32:47Z</time>
      </trkpt>
      <trkpt lat="45.43997" lon="5.95747">
        <ele>832.84</ele>
        <time>2013-08-24T09:32:55Z</time>
      </trkpt>
      <trkpt lat="45.43979" lon="5.95764">
        <ele>843.21</ele>
        <time>2013-08-24T09:33:04Z</time>
      </trkpt>
      <trkpt lat="45.43971" lon="5.95787">
        <ele>857.61</ele>
        <time>2013-08-24T09:33:11Z</time>
      </trkpt>
      <trkpt lat="45.43967" lon="5.95813">
        <ele>857.44</ele>
        <time>2013-08-24T09:33:19Z</time>
      </trkpt>
      <trkpt lat="45.43963" lon="5.95841">
        <ele>856.4</ele>
        <time>2013-08-24T09:33:29Z</time>
      </trkpt>
      <trkpt lat="45.43957" lon="5.9587">
        <ele>864.15</ele>
        <time>2013-08-24T09:33:39Z</time>
      </trkpt>
      <trkpt lat="45.43948" lon="5.959">
        <ele>865.47</ele>
        <time>2013-08-24T09:33:48Z</time>
      </trkpt>
      <trkpt lat="45.43943" lon="5.95927">
        <ele>865.24</ele>
        <time>2013-08-24T09:33:57Z</time>
      </trkpt>
      <trkpt lat="45.43932" lon="5.9595">
        <ele>865.52</ele>
        <time>2013-08-24T09:34:06Z</time>
      </trkpt>
      <trkpt lat="45.43917" lon="5.95971">
        <ele>860.48</ele>
        <time>2013-08-24T09:34:14Z</time>
      </trkpt>
      <trkpt lat="45.43904" lon="5.9599">
        <ele>859.25</ele>
        <time>2013-08-24T09:34:21Z</time>
      </trkpt>
      <trkpt lat="45.43885" lon="5.96004">
        <ele>859.11</ele>
        <time>2013-08-24T09:34:28Z</time>
      </trkpt>
      <trkpt lat="45.43867" lon="5.96011">
        <ele>859</ele>
        <time>2013-08-24T09:34:35Z</time>
      </trkpt>
      <trkpt lat="45.43843" lon="5.96016">
        <ele>858.49</ele>
        <time>2013-08-24T09:34:43Z</time>
      </trkpt>
      <trkpt lat="45.43817" lon="5.96022">
        <ele>859.72</ele>
        <time>2013-08-24T09:34:53Z</time>
      </trkpt>
      <trkpt lat="45.43798" lon="5.96029">
        <ele>853.6</ele>
        <time>2013-08-24T09:35:01Z</time>
      </trkpt>
      <trkpt lat="45.43774" lon="5.96041">
        <ele>855.03</ele>
        <time>2013-08-24T09:35:12Z</time>
      </trkpt>
      <trkpt lat="45.43746" lon="5.96052">
        <ele>862.94</ele>
        <time>2013-08-24T09:35:24Z</time>
      </trkpt>
      <trkpt lat="45.43726" lon="5.96066">
        <ele>874.67</ele>
        <time>2013-08-24T09:35:35Z</time>
      </trkpt>
      <trkpt lat="45.43703" lon="5.96047">
        <ele>864.57</ele>
        <time>2013-08-24T09:35:45Z</time>
      </trkpt>
      <trkpt lat="45.43698" lon="5.96078">
        <ele>882.29</ele>
        <time>2013-08-24T09:35:59Z</time>
      </trkpt>
      <trkpt lat="45.43709" lon="5.961">
        <ele>885.69</ele>
        <time>2013-08-24T09:36:06Z</time>
      </trkpt>
      <trkpt lat="45.43723" lon="5.96118">
        <ele>883.57</ele>
        <time>2013-08-24T09:36:16Z</time>
      </trkpt>
      <trkpt lat="45.43737" lon="5.96137">
        <ele>883.35</ele>
        <time>2013-08-24T09:36:25Z</time>
      </trkpt>
      <trkpt lat="45.43751" lon="5.96155">
        <ele>886.33</ele>
        <time>2013-08-24T09:36:34Z</time>
      </trkpt>
      <trkpt lat="45.43766" lon="5.96173">
        <ele>889.92</ele>
        <time>2013-08-24T09:36:42Z</time>
      </trkpt>
      <trkpt lat="45.43776" lon="5.96196">
        <ele>903.7</ele>
        <time>2013-08-24T09:36:53Z</time>
      </trkpt>
      <trkpt lat="45.43785" lon="5.9622">
        <ele>901.43</ele>
        <time>2013-08-24T09:37:04Z</time>
      </trkpt>
      <trkpt lat="45.43794" lon="5.96245">
        <ele>905.38</ele>
        <time>2013-08-24T09:37:13Z</time>
      </trkpt>
      <trkpt lat="45.43803" lon="5.96269">
        <ele>905.58</ele>
        <time>2013-08-24T09:37:22Z</time>
      </trkpt>
      <trkpt lat="45.43817" lon="5.96287">
        <ele>910.02</ele>
        <time>2013-08-24T09:37:30Z</time>
      </trkpt>
      <trkpt lat="45.43824" lon="5.96313">
        <ele>906.04</ele>
        <time>2013-08-24T09:37:40Z</time>
      </trkpt>
      <trkpt lat="45.43813" lon="5.96334">
        <ele>905.48</ele>
        <time>2013-08-24T09:37:49Z</time>
      </trkpt>
      <trkpt lat="45.43795" lon="5.96325">
        <ele>900.23</ele>
        <time>2013-08-24T09:37:54Z</time>
      </trkpt>
      <trkpt lat="45.43779" lon="5.96313">
        <ele>897.73</ele>
        <time>2013-08-24T09:38:03Z</time>
      </trkpt>
      <trkpt lat="45.43763" lon="5.96301">
        <ele>886.33</ele>
        <time>2013-08-24T09:38:17Z</time>
      </trkpt>
      <trkpt lat="45.43743" lon="5.96303">
        <ele>888.82</ele>
        <time>2013-08-24T09:38:26Z</time>
      </trkpt>
      <trkpt lat="45.43724" lon="5.96305">
        <ele>890.93</ele>
        <time>2013-08-24T09:38:36Z</time>
      </trkpt>
      <trkpt lat="45.43705" lon="5.96302">
        <ele>884.42</ele>
        <time>2013-08-24T09:38:47Z</time>
      </trkpt>
      <trkpt lat="45.43686" lon="5.96302">
        <ele>910.52</ele>
        <time>2013-08-24T09:38:58Z</time>
      </trkpt>
      <trkpt lat="45.43668" lon="5.96292">
        <ele>905.12</ele>
        <time>2013-08-24T09:39:12Z</time>
      </trkpt>
      <trkpt lat="45.4365" lon="5.96287">
        <ele>908.6</ele>
        <time>2013-08-24T09:39:25Z</time>
      </trkpt>
      <trkpt lat="45.43632" lon="5.96282">
        <ele>911.97</ele>
        <time>2013-08-24T09:39:34Z</time>
      </trkpt>
      <trkpt lat="45.43613" lon="5.96277">
        <ele>920.43</ele>
        <time>2013-08-24T09:39:46Z</time>
      </trkpt>
      <trkpt lat="45.43594" lon="5.96273">
        <ele>920.85</ele>
        <time>2013-08-24T09:40:00Z</time>
      </trkpt>
      <trkpt lat="45.43575" lon="5.96265">
        <ele>919.9</ele>
        <time>2013-08-24T09:40:12Z</time>
      </trkpt>
      <trkpt lat="45.43557" lon="5.96257">
        <ele>927.48</ele>
        <time>2013-08-24T09:40:22Z</time>
      </trkpt>
      <trkpt lat="45.43539" lon="5.96251">
        <ele>926.02</ele>
        <time>2013-08-24T09:40:34Z</time>
      </trkpt>
      <trkpt lat="45.43521" lon="5.96245">
        <ele>920.58</ele>
        <time>2013-08-24T09:40:45Z</time>
      </trkpt>
      <trkpt lat="45.43503" lon="5.96239">
        <ele>922.24</ele>
        <time>2013-08-24T09:40:57Z</time>
      </trkpt>
      <trkpt lat="45.43484" lon="5.96234">
        <ele>927.01</ele>
        <time>2013-08-24T09:41:10Z</time>
      </trkpt>
      <trkpt lat="45.43466" lon="5.96233">
        <ele>934.3</ele>
        <time>2013-08-24T09:41:20Z</time>
      </trkpt>
      <trkpt lat="45.43448" lon="5.96222">
        <ele>935.89</ele>
        <time>2013-08-24T09:41:31Z</time>
      </trkpt>
      <trkpt lat="45.43434" lon="5.96205">
        <ele>944.2</ele>
        <time>2013-08-24T09:41:42Z</time>
      </trkpt>
      <trkpt lat="45.43418" lon="5.96189">
        <ele>942.27</ele>
        <time>2013-08-24T09:41:53Z</time>
      </trkpt>
      <trkpt lat="45.43401" lon="5.96179">
        <ele>935.19</ele>
        <time>2013-08-24T09:42:04Z</time>
      </trkpt>
      <trkpt lat="45.43381" lon="5.96171">
        <ele>936.93</ele>
        <time>2013-08-24T09:42:13Z</time>
      </trkpt>
      <trkpt lat="45.43362" lon="5.96165">
        <ele>928.05</ele>
        <time>2013-08-24T09:42:21Z</time>
      </trkpt>
      <trkpt lat="45.43343" lon="5.96159">
        <ele>928.82</ele>
        <time>2013-08-24T09:42:29Z</time>
      </trkpt>
      <trkpt lat="45.43325" lon="5.96153">
        <ele>930.15</ele>
        <time>2013-08-24T09:42:36Z</time>
      </trkpt>
      <trkpt lat="45.43308" lon="5.96147">
        <ele>932.28</ele>
        <time>2013-08-24T09:42:43Z</time>
      </trkpt>
      <trkpt lat="45.43289" lon="5.96143">
        <ele>933.73</ele>
        <time>2013-08-24T09:42:51Z</time>
      </trkpt>
      <trkpt lat="45.43269" lon="5.96135">
        <ele>932.5</ele>
        <time>2013-08-24T09:42:58Z</time>
      </trkpt>
      <trkpt lat="45.43248" lon="5.96127">
        <ele>928.1</ele>
        <time>2013-08-24T09:43:05Z</time>
      </trkpt>
      <trkpt lat="45.43229" lon="5.96121">
        <ele>928.72</ele>
        <time>2013-08-24T09:43:11Z</time>
      </trkpt>
      <trkpt lat="45.43211" lon="5.96114">
        <ele>933.75</ele>
        <time>2013-08-24T09:43:17Z</time>
      </trkpt>
      <trkpt lat="45.43193" lon="5.96109">
        <ele>940.39</ele>
        <time>2013-08-24T09:43:24Z</time>
      </trkpt>
      <trkpt lat="45.43174" lon="5.96105">
        <ele>948.88</ele>
        <time>2013-08-24T09:43:32Z</time>
      </trkpt>
      <trkpt lat="45.43155" lon="5.96103">
        <ele>942.76</ele>
        <time>2013-08-24T09:43:38Z</time>
      </trkpt>
      <trkpt lat="45.43135" lon="5.96096">
        <ele>944.41</ele>
        <time>2013-08-24T09:43:47Z</time>
      </trkpt>
      <trkpt lat="45.43116" lon="5.9609">
        <ele>938.69</ele>
        <time>2013-08-24T09:43:56Z</time>
      </trkpt>
      <trkpt lat="45.43097" lon="5.96088">
        <ele>934.64</ele>
        <time>2013-08-24T09:44:03Z</time>
      </trkpt>
      <trkpt lat="45.43077" lon="5.96084">
        <ele>937.63</ele>
        <time>2013-08-24T09:44:13Z</time>
      </trkpt>
      <trkpt lat="45.43059" lon="5.9608">
        <ele>948.45</ele>
        <time>2013-08-24T09:44:23Z</time>
      </trkpt>
      <trkpt lat="45.43041" lon="5.96083">
        <ele>936</ele>
        <time>2013-08-24T09:44:35Z</time>
      </trkpt>
      <trkpt lat="45.43022" lon="5.96078">
        <ele>941.19</ele>
        <time>2013-08-24T09:44:44Z</time>
      </trkpt>
      <trkpt lat="45.43004" lon="5.96074">
        <ele>948.61</ele>
        <time>2013-08-24T09:44:56Z</time>
      </trkpt>
      <trkpt lat="45.42985" lon="5.96067">
        <ele>944.35</ele>
        <time>2013-08-24T09:45:09Z</time>
      </trkpt>
      <trkpt lat="45.42966" lon="5.96063">
        <ele>955.78</ele>
        <time>2013-08-24T09:45:18Z</time>
      </trkpt>
      <trkpt lat="45.42947" lon="5.96058">
        <ele>964.6</ele>
        <time>2013-08-24T09:45:26Z</time>
      </trkpt>
      <trkpt lat="45.42929" lon="5.96052">
        <ele>973.39</ele>
        <time>2013-08-24T09:45:34Z</time>
      </trkpt>
      <trkpt lat="45.4291" lon="5.96045">
        <ele>974.17</ele>
        <time>2013-08-24T09:45:42Z</time>
      </trkpt>
      <trkpt lat="45.42888" lon="5.96023">
        <ele>980.92</ele>
        <time>2013-08-24T09:49:30Z</time>
      </trkpt>
      <trkpt lat="45.4287" lon="5.96015">
        <ele>963.36</ele>
        <time>2013-08-24T09:49:42Z</time>
      </trkpt>
      <trkpt lat="45.42852" lon="5.96005">
        <ele>959.66</ele>
        <time>2013-08-24T09:49:52Z</time>
      </trkpt>
      <trkpt lat="45.42834" lon="5.95993">
        <ele>956.08</ele>
        <time>2013-08-24T09:50:01Z</time>
      </trkpt>
      <trkpt lat="45.42815" lon="5.95989">
        <ele>951.34</ele>
        <time>2013-08-24T09:50:05Z</time>
      </trkpt>
      <trkpt lat="45.42795" lon="5.95986">
        <ele>951.51</ele>
        <time>2013-08-24T09:50:08Z</time>
      </trkpt>
      <trkpt lat="45.42775" lon="5.95983">
        <ele>952.63</ele>
        <time>2013-08-24T09:50:11Z</time>
      </trkpt>
      <trkpt lat="45.42757" lon="5.95981">
        <ele>953.63</ele>
        <time>2013-08-24T09:50:14Z</time>
      </trkpt>
      <trkpt lat="45.42735" lon="5.95976">
        <ele>952.82</ele>
        <time>2013-08-24T09:50:17Z</time>
      </trkpt>
      <trkpt lat="45.42715" lon="5.95974">
        <ele>951.92</ele>
        <time>2013-08-24T09:50:20Z</time>
      </trkpt>
      <trkpt lat="45.42692" lon="5.95977">
        <ele>945.89</ele>
        <time>2013-08-24T09:50:25Z</time>
      </trkpt>
      <trkpt lat="45.42674" lon="5.95983">
        <ele>948.9</ele>
        <time>2013-08-24T09:50:29Z</time>
      </trkpt>
      <trkpt lat="45.42654" lon="5.95991">
        <ele>957.14</ele>
        <time>2013-08-24T09:50:34Z</time>
      </trkpt>
      <trkpt lat="45.42635" lon="5.95996">
        <ele>958.72</ele>
        <time>2013-08-24T09:50:39Z</time>
      </trkpt>
      <trkpt lat="45.42615" lon="5.96004">
        <ele>957.37</ele>
        <time>2013-08-24T09:50:46Z</time>
      </trkpt>
      <trkpt lat="45.42597" lon="5.96009">
        <ele>956.22</ele>
        <time>2013-08-24T09:50:51Z</time>
      </trkpt>
      <trkpt lat="45.42578" lon="5.96014">
        <ele>958.64</ele>
        <time>2013-08-24T09:50:56Z</time>
      </trkpt>
      <trkpt lat="45.4256" lon="5.96018">
        <ele>959.58</ele>
        <time>2013-08-24T09:51:01Z</time>
      </trkpt>
      <trkpt lat="45.42539" lon="5.96024">
        <ele>957.55</ele>
        <time>2013-08-24T09:51:06Z</time>
      </trkpt>
      <trkpt lat="45.42519" lon="5.96031">
        <ele>957.45</ele>
        <time>2013-08-24T09:51:11Z</time>
      </trkpt>
      <trkpt lat="45.425" lon="5.96035">
        <ele>957.31</ele>
        <time>2013-08-24T09:51:15Z</time>
      </trkpt>
      <trkpt lat="45.4248" lon="5.96039">
        <ele>959.79</ele>
        <time>2013-08-24T09:51:19Z</time>
      </trkpt>
      <trkpt lat="45.42457" lon="5.96043">
        <ele>959.84</ele>
        <time>2013-08-24T09:51:23Z</time>
      </trkpt>
      <trkpt lat="45.42437" lon="5.96049">
        <ele>957.43</ele>
        <time>2013-08-24T09:51:26Z</time>
      </trkpt>
      <trkpt lat="45.42419" lon="5.96057">
        <ele>953.81</ele>
        <time>2013-08-24T09:51:29Z</time>
      </trkpt>
      <trkpt lat="45.42397" lon="5.96069">
        <ele>948.41</ele>
        <time>2013-08-24T09:51:33Z</time>
      </trkpt>
      <trkpt lat="45.42379" lon="5.96079">
        <ele>944.93</ele>
        <time>2013-08-24T09:51:36Z</time>
      </trkpt>
      <trkpt lat="45.42362" lon="5.96088">
        <ele>942.84</ele>
        <time>2013-08-24T09:51:39Z</time>
      </trkpt>
      <trkpt lat="45.42343" lon="5.96092">
        <ele>943.7</ele>
        <time>2013-08-24T09:51:42Z</time>
      </trkpt>
      <trkpt lat="45.42325" lon="5.96093">
        <ele>943.09</ele>
        <time>2013-08-24T09:51:45Z</time>
      </trkpt>
      <trkpt lat="45.42306" lon="5.96092">
        <ele>942.47</ele>
        <time>2013-08-24T09:51:48Z</time>
      </trkpt>
      <trkpt lat="45.42284" lon="5.96089">
        <ele>944.05</ele>
        <time>2013-08-24T09:51:51Z</time>
      </trkpt>
      <trkpt lat="45.42264" lon="5.96085">
        <ele>946.42</ele>
        <time>2013-08-24T09:51:54Z</time>
      </trkpt>
      <trkpt lat="45.4224" lon="5.96082">
        <ele>947.32</ele>
        <time>2013-08-24T09:51:57Z</time>
      </trkpt>
      <trkpt lat="45.42215" lon="5.96079">
        <ele>950</ele>
        <time>2013-08-24T09:52:00Z</time>
      </trkpt>
      <trkpt lat="45.4219" lon="5.96073">
        <ele>948.42</ele>
        <time>2013-08-24T09:52:03Z</time>
      </trkpt>
      <trkpt lat="45.4217" lon="5.96051">
        <ele>946.93</ele>
        <time>2013-08-24T09:52:06Z</time>
      </trkpt>
      <trkpt lat="45.42162" lon="5.96027">
        <ele>943.72</ele>
        <time>2013-08-24T09:52:08Z</time>
      </trkpt>
      <trkpt lat="45.42158" lon="5.95997">
        <ele>939.6</ele>
        <time>2013-08-24T09:52:10Z</time>
      </trkpt>
      <trkpt lat="45.42156" lon="5.95964">
        <ele>935.97</ele>
        <time>2013-08-24T09:52:12Z</time>
      </trkpt>
      <trkpt lat="45.42154" lon="5.95932">
        <ele>933.12</ele>
        <time>2013-08-24T09:52:14Z</time>
      </trkpt>
      <trkpt lat="45.4215" lon="5.95904">
        <ele>933.7</ele>
        <time>2013-08-24T09:52:16Z</time>
      </trkpt>
      <trkpt lat="45.42141" lon="5.95875">
        <ele>932.93</ele>
        <time>2013-08-24T09:52:19Z</time>
      </trkpt>
      <trkpt lat="45.42121" lon="5.95877">
        <ele>928.07</ele>
        <time>2013-08-24T09:52:22Z</time>
      </trkpt>
      <trkpt lat="45.42106" lon="5.95902">
        <ele>926.12</ele>
        <time>2013-08-24T09:52:25Z</time>
      </trkpt>
      <trkpt lat="45.42096" lon="5.9593">
        <ele>925.84</ele>
        <time>2013-08-24T09:52:28Z</time>
      </trkpt>
      <trkpt lat="45.42085" lon="5.95955">
        <ele>929.43</ele>
        <time>2013-08-24T09:52:32Z</time>
      </trkpt>
      <trkpt lat="45.42065" lon="5.95968">
        <ele>928.25</ele>
        <time>2013-08-24T09:52:36Z</time>
      </trkpt>
      <trkpt lat="45.42045" lon="5.95956">
        <ele>923.43</ele>
        <time>2013-08-24T09:52:41Z</time>
      </trkpt>
      <trkpt lat="45.42031" lon="5.95939">
        <ele>920.99</ele>
        <time>2013-08-24T09:52:46Z</time>
      </trkpt>
      <trkpt lat="45.42017" lon="5.9592">
        <ele>927</ele>
        <time>2013-08-24T09:52:53Z</time>
      </trkpt>
      <trkpt lat="45.42001" lon="5.95907">
        <ele>936.78</ele>
        <time>2013-08-24T09:53:00Z</time>
      </trkpt>
      <trkpt lat="45.41984" lon="5.95895">
        <ele>938.78</ele>
        <time>2013-08-24T09:53:08Z</time>
      </trkpt>
      <trkpt lat="45.41965" lon="5.95887">
        <ele>932.41</ele>
        <time>2013-08-24T09:53:15Z</time>
      </trkpt>
      <trkpt lat="45.41948" lon="5.95878">
        <ele>934.87</ele>
        <time>2013-08-24T09:53:21Z</time>
      </trkpt>
      <trkpt lat="45.41934" lon="5.9586">
        <ele>940.66</ele>
        <time>2013-08-24T09:53:29Z</time>
      </trkpt>
      <trkpt lat="45.41926" lon="5.95837">
        <ele>942.18</ele>
        <time>2013-08-24T09:53:33Z</time>
      </trkpt>
      <trkpt lat="45.41915" lon="5.95814">
        <ele>942.79</ele>
        <time>2013-08-24T09:53:38Z</time>
      </trkpt>
      <trkpt lat="45.419" lon="5.95797">
        <ele>946.03</ele>
        <time>2013-08-24T09:53:43Z</time>
      </trkpt>
      <trkpt lat="45.41884" lon="5.95779">
        <ele>950.09</ele>
        <time>2013-08-24T09:53:49Z</time>
      </trkpt>
      <trkpt lat="45.41869" lon="5.95756">
        <ele>942.31</ele>
        <time>2013-08-24T09:53:54Z</time>
      </trkpt>
      <trkpt lat="45.41856" lon="5.95735">
        <ele>938.31</ele>
        <time>2013-08-24T09:53:57Z</time>
      </trkpt>
      <trkpt lat="45.41851" lon="5.95702">
        <ele>934.95</ele>
        <time>2013-08-24T09:54:00Z</time>
      </trkpt>
      <trkpt lat="45.41846" lon="5.9567">
        <ele>935.08</ele>
        <time>2013-08-24T09:54:03Z</time>
      </trkpt>
      <trkpt lat="45.41826" lon="5.9566">
        <ele>936.61</ele>
        <time>2013-08-24T09:54:07Z</time>
      </trkpt>
      <trkpt lat="45.41806" lon="5.95647">
        <ele>938.37</ele>
        <time>2013-08-24T09:54:11Z</time>
      </trkpt>
      <trkpt lat="45.41789" lon="5.9564">
        <ele>939.61</ele>
        <time>2013-08-24T09:54:16Z</time>
      </trkpt>
      <trkpt lat="45.41776" lon="5.95621">
        <ele>940.85</ele>
        <time>2013-08-24T09:54:23Z</time>
      </trkpt>
      <trkpt lat="45.4176" lon="5.95604">
        <ele>934.6</ele>
        <time>2013-08-24T09:54:29Z</time>
      </trkpt>
      <trkpt lat="45.41745" lon="5.95587">
        <ele>934.91</ele>
        <time>2013-08-24T09:54:34Z</time>
      </trkpt>
      <trkpt lat="45.41728" lon="5.95569">
        <ele>935.87</ele>
        <time>2013-08-24T09:54:40Z</time>
      </trkpt>
      <trkpt lat="45.41714" lon="5.95553">
        <ele>939.67</ele>
        <time>2013-08-24T09:54:45Z</time>
      </trkpt>
      <trkpt lat="45.41701" lon="5.95535">
        <ele>938.97</ele>
        <time>2013-08-24T09:54:50Z</time>
      </trkpt>
      <trkpt lat="45.41685" lon="5.95516">
        <ele>937.81</ele>
        <time>2013-08-24T09:54:55Z</time>
      </trkpt>
      <trkpt lat="45.41668" lon="5.95495">
        <ele>938.92</ele>
        <time>2013-08-24T09:55:00Z</time>
      </trkpt>
      <trkpt lat="45.41654" lon="5.95472">
        <ele>938.59</ele>
        <time>2013-08-24T09:55:05Z</time>
      </trkpt>
      <trkpt lat="45.41643" lon="5.95449">
        <ele>941</ele>
        <time>2013-08-24T09:55:10Z</time>
      </trkpt>
      <trkpt lat="45.41633" lon="5.95424">
        <ele>942.79</ele>
        <time>2013-08-24T09:55:15Z</time>
      </trkpt>
      <trkpt lat="45.41621" lon="5.95397">
        <ele>945.04</ele>
        <time>2013-08-24T09:55:20Z</time>
      </trkpt>
      <trkpt lat="45.41611" lon="5.95375">
        <ele>944.54</ele>
        <time>2013-08-24T09:55:25Z</time>
      </trkpt>
      <trkpt lat="45.4161" lon="5.95348">
        <ele>943.32</ele>
        <time>2013-08-24T09:57:05Z</time>
      </trkpt>
      <trkpt lat="45.41597" lon="5.95329">
        <ele>954.02</ele>
        <time>2013-08-24T09:57:15Z</time>
      </trkpt>
      <trkpt lat="45.41584" lon="5.95312">
        <ele>962.59</ele>
        <time>2013-08-24T09:57:29Z</time>
      </trkpt>
      <trkpt lat="45.41578" lon="5.95287">
        <ele>956.2</ele>
        <time>2013-08-24T09:57:42Z</time>
      </trkpt>
      <trkpt lat="45.41573" lon="5.95251">
        <ele>964.47</ele>
        <time>2013-08-24T09:57:58Z</time>
      </trkpt>
      <trkpt lat="45.41587" lon="5.95223">
        <ele>965.14</ele>
        <time>2013-08-24T09:58:26Z</time>
      </trkpt>
      <trkpt lat="45.41586" lon="5.95186">
        <ele>977</ele>
        <time>2013-08-24T09:58:51Z</time>
      </trkpt>
      <trkpt lat="45.41577" lon="5.95158">
        <ele>988.68</ele>
        <time>2013-08-24T09:59:00Z</time>
      </trkpt>
      <trkpt lat="45.41573" lon="5.95132">
        <ele>998.25</ele>
        <time>2013-08-24T09:59:22Z</time>
      </trkpt>
      <trkpt lat="45.41568" lon="5.95107">
        <ele>989.81</ele>
        <time>2013-08-24T09:59:39Z</time>
      </trkpt>
      <trkpt lat="45.41571" lon="5.95081">
        <ele>983.49</ele>
        <time>2013-08-24T09:59:58Z</time>
      </trkpt>
      <trkpt lat="45.41571" lon="5.95054">
        <ele>983.98</ele>
        <time>2013-08-24T10:00:12Z</time>
      </trkpt>
      <trkpt lat="45.41566" lon="5.95029">
        <ele>988.46</ele>
        <time>2013-08-24T10:00:19Z</time>
      </trkpt>
      <trkpt lat="45.41559" lon="5.95003">
        <ele>998.34</ele>
        <time>2013-08-24T10:00:35Z</time>
      </trkpt>
      <trkpt lat="45.41562" lon="5.94978">
        <ele>984.42</ele>
        <time>2013-08-24T10:00:47Z</time>
      </trkpt>
      <trkpt lat="45.41559" lon="5.9495">
        <ele>985.64</ele>
        <time>2013-08-24T10:00:56Z</time>
      </trkpt>
      <trkpt lat="45.41555" lon="5.94925">
        <ele>999.96</ele>
        <time>2013-08-24T10:01:06Z</time>
      </trkpt>
      <trkpt lat="45.41553" lon="5.94899">
        <ele>1007.66</ele>
        <time>2013-08-24T10:01:22Z</time>
      </trkpt>
      <trkpt lat="45.41547" lon="5.94874">
        <ele>1002.35</ele>
        <time>2013-08-24T10:01:33Z</time>
      </trkpt>
      <trkpt lat="45.4153" lon="5.94857">
        <ele>998.12</ele>
        <time>2013-08-24T10:01:47Z</time>
      </trkpt>
      <trkpt lat="45.41514" lon="5.94846">
        <ele>1000.26</ele>
        <time>2013-08-24T10:01:55Z</time>
      </trkpt>
      <trkpt lat="45.41494" lon="5.94835">
        <ele>998.45</ele>
        <time>2013-08-24T10:02:03Z</time>
      </trkpt>
      <trkpt lat="45.41477" lon="5.94822">
        <ele>996.18</ele>
        <time>2013-08-24T10:02:12Z</time>
      </trkpt>
      <trkpt lat="45.41475" lon="5.94795">
        <ele>993.28</ele>
        <time>2013-08-24T10:02:21Z</time>
      </trkpt>
      <trkpt lat="45.41485" lon="5.94773">
        <ele>977.99</ele>
        <time>2013-08-24T10:02:28Z</time>
      </trkpt>
      <trkpt lat="45.41479" lon="5.94748">
        <ele>985.95</ele>
        <time>2013-08-24T10:02:41Z</time>
      </trkpt>
      <trkpt lat="45.41464" lon="5.94734">
        <ele>1005.7</ele>
        <time>2013-08-24T10:02:53Z</time>
      </trkpt>
      <trkpt lat="45.41446" lon="5.94725">
        <ele>1009.7</ele>
        <time>2013-08-24T10:03:12Z</time>
      </trkpt>
      <trkpt lat="45.41428" lon="5.94719">
        <ele>1007.58</ele>
        <time>2013-08-24T10:03:36Z</time>
      </trkpt>
      <trkpt lat="45.4141" lon="5.94715">
        <ele>993.86</ele>
        <time>2013-08-24T10:03:44Z</time>
      </trkpt>
      <trkpt lat="45.41395" lon="5.94696">
        <ele>993.44</ele>
        <time>2013-08-24T10:03:52Z</time>
      </trkpt>
      <trkpt lat="45.41381" lon="5.9468">
        <ele>993.27</ele>
        <time>2013-08-24T10:03:56Z</time>
      </trkpt>
      <trkpt lat="45.41366" lon="5.9466">
        <ele>991.33</ele>
        <time>2013-08-24T10:04:01Z</time>
      </trkpt>
      <trkpt lat="45.41352" lon="5.94642">
        <ele>999.09</ele>
        <time>2013-08-24T10:04:07Z</time>
      </trkpt>
      <trkpt lat="45.41336" lon="5.94627">
        <ele>1005.13</ele>
        <time>2013-08-24T10:04:14Z</time>
      </trkpt>
      <trkpt lat="45.41319" lon="5.94612">
        <ele>1003.85</ele>
        <time>2013-08-24T10:04:21Z</time>
      </trkpt>
      <trkpt lat="45.41301" lon="5.94599">
        <ele>1001.08</ele>
        <time>2013-08-24T10:04:25Z</time>
      </trkpt>
      <trkpt lat="45.41284" lon="5.94586">
        <ele>997.11</ele>
        <time>2013-08-24T10:04:30Z</time>
      </trkpt>
      <trkpt lat="45.41263" lon="5.94582">
        <ele>994.45</ele>
        <time>2013-08-24T10:04:36Z</time>
      </trkpt>
      <trkpt lat="45.41247" lon="5.94568">
        <ele>998.77</ele>
        <time>2013-08-24T10:04:42Z</time>
      </trkpt>
      <trkpt lat="45.41233" lon="5.94551">
        <ele>1000.2</ele>
        <time>2013-08-24T10:04:48Z</time>
      </trkpt>
      <trkpt lat="45.41217" lon="5.94537">
        <ele>1004.06</ele>
        <time>2013-08-24T10:04:55Z</time>
      </trkpt>
      <trkpt lat="45.41199" lon="5.9453">
        <ele>1009.94</ele>
        <time>2013-08-24T10:05:08Z</time>
      </trkpt>
      <trkpt lat="45.41181" lon="5.94538">
        <ele>998.4</ele>
        <time>2013-08-24T10:05:16Z</time>
      </trkpt>
      <trkpt lat="45.41197" lon="5.94522">
        <ele>993.93</ele>
        <time>2013-08-24T10:05:38Z</time>
      </trkpt>
      <trkpt lat="45.41211" lon="5.94505">
        <ele>999.07</ele>
        <time>2013-08-24T10:05:47Z</time>
      </trkpt>
      <trkpt lat="45.41225" lon="5.94487">
        <ele>1005.3</ele>
        <time>2013-08-24T10:05:58Z</time>
      </trkpt>
      <trkpt lat="45.41241" lon="5.94474">
        <ele>1012.47</ele>
        <time>2013-08-24T10:06:07Z</time>
      </trkpt>
      <trkpt lat="45.41259" lon="5.94472">
        <ele>1018.82</ele>
        <time>2013-08-24T10:06:20Z</time>
      </trkpt>
      <trkpt lat="45.41279" lon="5.94479">
        <ele>1017.93</ele>
        <time>2013-08-24T10:06:31Z</time>
      </trkpt>
      <trkpt lat="45.41299" lon="5.94488">
        <ele>1009.81</ele>
        <time>2013-08-24T10:06:44Z</time>
      </trkpt>
      <trkpt lat="45.41316" lon="5.945">
        <ele>1025.94</ele>
        <time>2013-08-24T10:06:55Z</time>
      </trkpt>
      <trkpt lat="45.41335" lon="5.94504">
        <ele>1019.1</ele>
        <time>2013-08-24T10:07:07Z</time>
      </trkpt>
      <trkpt lat="45.41353" lon="5.94501">
        <ele>1016.97</ele>
        <time>2013-08-24T10:07:13Z</time>
      </trkpt>
      <trkpt lat="45.41373" lon="5.945">
        <ele>1024.9</ele>
        <time>2013-08-24T10:07:28Z</time>
      </trkpt>
      <trkpt lat="45.41395" lon="5.94503">
        <ele>1029.22</ele>
        <time>2013-08-24T10:07:49Z</time>
      </trkpt>
      <trkpt lat="45.41413" lon="5.94511">
        <ele>1038.13</ele>
        <time>2013-08-24T10:08:03Z</time>
      </trkpt>
      <trkpt lat="45.41431" lon="5.9452">
        <ele>1044.07</ele>
        <time>2013-08-24T10:08:15Z</time>
      </trkpt>
      <trkpt lat="45.41448" lon="5.94528">
        <ele>1043.13</ele>
        <time>2013-08-24T10:08:30Z</time>
      </trkpt>
      <trkpt lat="45.41467" lon="5.94535">
        <ele>1048.9</ele>
        <time>2013-08-24T10:08:46Z</time>
      </trkpt>
      <trkpt lat="45.41486" lon="5.9454">
        <ele>1048.31</ele>
        <time>2013-08-24T10:08:58Z</time>
      </trkpt>
      <trkpt lat="45.41504" lon="5.94538">
        <ele>1044.64</ele>
        <time>2013-08-24T10:09:07Z</time>
      </trkpt>
      <trkpt lat="45.41521" lon="5.94528">
        <ele>1046.62</ele>
        <time>2013-08-24T10:09:14Z</time>
      </trkpt>
      <trkpt lat="45.41536" lon="5.94511">
        <ele>1049.1</ele>
        <time>2013-08-24T10:09:26Z</time>
      </trkpt>
      <trkpt lat="45.41553" lon="5.945">
        <ele>1056.03</ele>
        <time>2013-08-24T10:09:40Z</time>
      </trkpt>
      <trkpt lat="45.41572" lon="5.94501">
        <ele>1067.14</ele>
        <time>2013-08-24T10:09:57Z</time>
      </trkpt>
      <trkpt lat="45.4158" lon="5.94525">
        <ele>1062.85</ele>
        <time>2013-08-24T10:10:07Z</time>
      </trkpt>
      <trkpt lat="45.41575" lon="5.94553">
        <ele>1060.64</ele>
        <time>2013-08-24T10:10:17Z</time>
      </trkpt>
      <trkpt lat="45.4159" lon="5.94535">
        <ele>1057.59</ele>
        <time>2013-08-24T10:10:45Z</time>
      </trkpt>
      <trkpt lat="45.41595" lon="5.94509">
        <ele>1069.24</ele>
        <time>2013-08-24T10:10:58Z</time>
      </trkpt>
      <trkpt lat="45.41598" lon="5.94479">
        <ele>1072.82</ele>
        <time>2013-08-24T10:11:10Z</time>
      </trkpt>
      <trkpt lat="45.41583" lon="5.9446">
        <ele>1075.35</ele>
        <time>2013-08-24T10:11:22Z</time>
      </trkpt>
      <trkpt lat="45.41563" lon="5.94453">
        <ele>1075.84</ele>
        <time>2013-08-24T10:11:34Z</time>
      </trkpt>
      <trkpt lat="45.41552" lon="5.94431">
        <ele>1082.91</ele>
        <time>2013-08-24T10:11:48Z</time>
      </trkpt>
      <trkpt lat="45.41537" lon="5.94416">
        <ele>1069.14</ele>
        <time>2013-08-24T10:12:03Z</time>
      </trkpt>
      <trkpt lat="45.41523" lon="5.94399">
        <ele>1073.62</ele>
        <time>2013-08-24T10:12:12Z</time>
      </trkpt>
      <trkpt lat="45.41512" lon="5.94376">
        <ele>1076.32</ele>
        <time>2013-08-24T10:12:23Z</time>
      </trkpt>
      <trkpt lat="45.41494" lon="5.94368">
        <ele>1084.92</ele>
        <time>2013-08-24T10:12:35Z</time>
      </trkpt>
      <trkpt lat="45.41477" lon="5.94359">
        <ele>1084.87</ele>
        <time>2013-08-24T10:12:52Z</time>
      </trkpt>
      <trkpt lat="45.41459" lon="5.94352">
        <ele>1085.04</ele>
        <time>2013-08-24T10:13:09Z</time>
      </trkpt>
      <trkpt lat="45.41442" lon="5.94341">
        <ele>1089.52</ele>
        <time>2013-08-24T10:13:25Z</time>
      </trkpt>
      <trkpt lat="45.41425" lon="5.94326">
        <ele>1097.08</ele>
        <time>2013-08-24T10:13:36Z</time>
      </trkpt>
      <trkpt lat="45.41409" lon="5.94308">
        <ele>1102.01</ele>
        <time>2013-08-24T10:13:52Z</time>
      </trkpt>
      <trkpt lat="45.41397" lon="5.94288">
        <ele>1092.32</ele>
        <time>2013-08-24T10:14:09Z</time>
      </trkpt>
      <trkpt lat="45.41384" lon="5.94267">
        <ele>1099.74</ele>
        <time>2013-08-24T10:14:28Z</time>
      </trkpt>
      <trkpt lat="45.41381" lon="5.94241">
        <ele>1097.65</ele>
        <time>2013-08-24T10:14:31Z</time>
      </trkpt>
      <trkpt lat="45.41382" lon="5.94215">
        <ele>1097.3</ele>
        <time>2013-08-24T10:14:42Z</time>
      </trkpt>
      <trkpt lat="45.41365" lon="5.94197">
        <ele>1107.25</ele>
        <time>2013-08-24T10:15:13Z</time>
      </trkpt>
      <trkpt lat="45.41349" lon="5.94187">
        <ele>1102.7</ele>
        <time>2013-08-24T10:15:28Z</time>
      </trkpt>
      <trkpt lat="45.41331" lon="5.94183">
        <ele>1098.86</ele>
        <time>2013-08-24T10:15:41Z</time>
      </trkpt>
      <trkpt lat="45.41313" lon="5.94188">
        <ele>1100.58</ele>
        <time>2013-08-24T10:16:00Z</time>
      </trkpt>
      <trkpt lat="45.41294" lon="5.9418">
        <ele>1098.3</ele>
        <time>2013-08-24T10:16:04Z</time>
      </trkpt>
      <trkpt lat="45.41278" lon="5.94161">
        <ele>1098.87</ele>
        <time>2013-08-24T10:16:10Z</time>
      </trkpt>
      <trkpt lat="45.41259" lon="5.94162">
        <ele>1097.58</ele>
        <time>2013-08-24T10:16:17Z</time>
      </trkpt>
      <trkpt lat="45.4124" lon="5.94161">
        <ele>1095.29</ele>
        <time>2013-08-24T10:16:26Z</time>
      </trkpt>
      <trkpt lat="45.41221" lon="5.94153">
        <ele>1099.99</ele>
        <time>2013-08-24T10:16:32Z</time>
      </trkpt>
      <trkpt lat="45.412" lon="5.9415">
        <ele>1100.34</ele>
        <time>2013-08-24T10:16:38Z</time>
      </trkpt>
      <trkpt lat="45.41183" lon="5.9414">
        <ele>1103.03</ele>
        <time>2013-08-24T10:16:43Z</time>
      </trkpt>
      <trkpt lat="45.41165" lon="5.9413">
        <ele>1101.14</ele>
        <time>2013-08-24T10:16:48Z</time>
      </trkpt>
      <trkpt lat="45.41148" lon="5.94118">
        <ele>1098.18</ele>
        <time>2013-08-24T10:16:55Z</time>
      </trkpt>
      <trkpt lat="45.41134" lon="5.94101">
        <ele>1100.92</ele>
        <time>2013-08-24T10:17:03Z</time>
      </trkpt>
      <trkpt lat="45.41127" lon="5.94124">
        <ele>1077.82</ele>
        <time>2013-08-24T10:17:26Z</time>
      </trkpt>
      <trkpt lat="45.41109" lon="5.94138">
        <ele>1064.87</ele>
        <time>2013-08-24T10:17:33Z</time>
      </trkpt>
      <trkpt lat="45.41095" lon="5.94159">
        <ele>1055.77</ele>
        <time>2013-08-24T10:17:38Z</time>
      </trkpt>
      <trkpt lat="45.41082" lon="5.94181">
        <ele>1047.55</ele>
        <time>2013-08-24T10:17:42Z</time>
      </trkpt>
      <trkpt lat="45.41067" lon="5.94202">
        <ele>1040.34</ele>
        <time>2013-08-24T10:17:46Z</time>
      </trkpt>
      <trkpt lat="45.41051" lon="5.94217">
        <ele>1035.79</ele>
        <time>2013-08-24T10:17:51Z</time>
      </trkpt>
      <trkpt lat="45.41046" lon="5.94245">
        <ele>1032.61</ele>
        <time>2013-08-24T10:17:58Z</time>
      </trkpt>
      <trkpt lat="45.41039" lon="5.94272">
        <ele>1017.39</ele>
        <time>2013-08-24T10:18:03Z</time>
      </trkpt>
      <trkpt lat="45.41025" lon="5.94295">
        <ele>1005.7</ele>
        <time>2013-08-24T10:18:08Z</time>
      </trkpt>
      <trkpt lat="45.41011" lon="5.94317">
        <ele>999.65</ele>
        <time>2013-08-24T10:18:12Z</time>
      </trkpt>
      <trkpt lat="45.40998" lon="5.9434">
        <ele>997.16</ele>
        <time>2013-08-24T10:18:15Z</time>
      </trkpt>
      <trkpt lat="45.4098" lon="5.94364">
        <ele>994.33</ele>
        <time>2013-08-24T10:18:19Z</time>
      </trkpt>
      <trkpt lat="45.40963" lon="5.94388">
        <ele>992.44</ele>
        <time>2013-08-24T10:18:22Z</time>
      </trkpt>
      <trkpt lat="45.40949" lon="5.94408">
        <ele>989.21</ele>
        <time>2013-08-24T10:18:25Z</time>
      </trkpt>
      <trkpt lat="45.40933" lon="5.94427">
        <ele>983.88</ele>
        <time>2013-08-24T10:18:28Z</time>
      </trkpt>
      <trkpt lat="45.4092" lon="5.94447">
        <ele>979.42</ele>
        <time>2013-08-24T10:18:31Z</time>
      </trkpt>
      <trkpt lat="45.40909" lon="5.94469">
        <ele>973.31</ele>
        <time>2013-08-24T10:18:35Z</time>
      </trkpt>
      <trkpt lat="45.40894" lon="5.9449">
        <ele>963.02</ele>
        <time>2013-08-24T10:18:40Z</time>
      </trkpt>
      <trkpt lat="45.4088" lon="5.94509">
        <ele>956.39</ele>
        <time>2013-08-24T10:18:43Z</time>
      </trkpt>
      <trkpt lat="45.40862" lon="5.94527">
        <ele>948.17</ele>
        <time>2013-08-24T10:18:47Z</time>
      </trkpt>
      <trkpt lat="45.40847" lon="5.9455">
        <ele>947.49</ele>
        <time>2013-08-24T10:18:51Z</time>
      </trkpt>
      <trkpt lat="45.40824" lon="5.94556">
        <ele>950.51</ele>
        <time>2013-08-24T10:18:55Z</time>
      </trkpt>
      <trkpt lat="45.40797" lon="5.94549">
        <ele>951.47</ele>
        <time>2013-08-24T10:18:58Z</time>
      </trkpt>
      <trkpt lat="45.40776" lon="5.94545">
        <ele>949.21</ele>
        <time>2013-08-24T10:19:00Z</time>
      </trkpt>
      <trkpt lat="45.40757" lon="5.94544">
        <ele>945.55</ele>
        <time>2013-08-24T10:19:03Z</time>
      </trkpt>
      <trkpt lat="45.40739" lon="5.94553">
        <ele>952.53</ele>
        <time>2013-08-24T10:22:23Z</time>
      </trkpt>
      <trkpt lat="45.40733" lon="5.94578">
        <ele>943.9</ele>
        <time>2013-08-24T10:23:16Z</time>
      </trkpt>
      <trkpt lat="45.40741" lon="5.94601">
        <ele>943.12</ele>
        <time>2013-08-24T10:23:22Z</time>
      </trkpt>
      <trkpt lat="45.40754" lon="5.94621">
        <ele>942.77</ele>
        <time>2013-08-24T10:23:26Z</time>
      </trkpt>
      <trkpt lat="45.40769" lon="5.9464">
        <ele>942.78</ele>
        <time>2013-08-24T10:23:30Z</time>
      </trkpt>
      <trkpt lat="45.40787" lon="5.94656">
        <ele>941.09</ele>
        <time>2013-08-24T10:23:34Z</time>
      </trkpt>
      <trkpt lat="45.40806" lon="5.94668">
        <ele>937.19</ele>
        <time>2013-08-24T10:23:38Z</time>
      </trkpt>
      <trkpt lat="45.4082" lon="5.94693">
        <ele>934.69</ele>
        <time>2013-08-24T10:23:42Z</time>
      </trkpt>
      <trkpt lat="45.40832" lon="5.94716">
        <ele>938.99</ele>
        <time>2013-08-24T10:23:47Z</time>
      </trkpt>
      <trkpt lat="45.40851" lon="5.94725">
        <ele>943.31</ele>
        <time>2013-08-24T10:23:52Z</time>
      </trkpt>
      <trkpt lat="45.4087" lon="5.94732">
        <ele>943.34</ele>
        <time>2013-08-24T10:23:56Z</time>
      </trkpt>
      <trkpt lat="45.40888" lon="5.94744">
        <ele>942.73</ele>
        <time>2013-08-24T10:24:01Z</time>
      </trkpt>
      <trkpt lat="45.40904" lon="5.94755">
        <ele>942.31</ele>
        <time>2013-08-24T10:24:05Z</time>
      </trkpt>
      <trkpt lat="45.40924" lon="5.94764">
        <ele>944.94</ele>
        <time>2013-08-24T10:24:10Z</time>
      </trkpt>
      <trkpt lat="45.40945" lon="5.94772">
        <ele>943.59</ele>
        <time>2013-08-24T10:24:15Z</time>
      </trkpt>
      <trkpt lat="45.40963" lon="5.94779">
        <ele>943.1</ele>
        <time>2013-08-24T10:24:19Z</time>
      </trkpt>
      <trkpt lat="45.40983" lon="5.94788">
        <ele>943.2</ele>
        <time>2013-08-24T10:24:23Z</time>
      </trkpt>
      <trkpt lat="45.41004" lon="5.94797">
        <ele>941.27</ele>
        <time>2013-08-24T10:24:28Z</time>
      </trkpt>
      <trkpt lat="45.41025" lon="5.94794">
        <ele>933.72</ele>
        <time>2013-08-24T10:24:32Z</time>
      </trkpt>
      <trkpt lat="45.41046" lon="5.94782">
        <ele>926.99</ele>
        <time>2013-08-24T10:24:36Z</time>
      </trkpt>
      <trkpt lat="45.41064" lon="5.94781">
        <ele>933.99</ele>
        <time>2013-08-24T10:24:40Z</time>
      </trkpt>
      <trkpt lat="45.41081" lon="5.94798">
        <ele>938.16</ele>
        <time>2013-08-24T10:24:44Z</time>
      </trkpt>
      <trkpt lat="45.41097" lon="5.94813">
        <ele>932.92</ele>
        <time>2013-08-24T10:24:48Z</time>
      </trkpt>
      <trkpt lat="45.41115" lon="5.94821">
        <ele>925.74</ele>
        <time>2013-08-24T10:24:54Z</time>
      </trkpt>
      <trkpt lat="45.41129" lon="5.94843">
        <ele>922.13</ele>
        <time>2013-08-24T10:24:58Z</time>
      </trkpt>
      <trkpt lat="45.41133" lon="5.94869">
        <ele>920.85</ele>
        <time>2013-08-24T10:25:01Z</time>
      </trkpt>
      <trkpt lat="45.4114" lon="5.94896">
        <ele>920.32</ele>
        <time>2013-08-24T10:25:04Z</time>
      </trkpt>
      <trkpt lat="45.41157" lon="5.94922">
        <ele>924.03</ele>
        <time>2013-08-24T10:25:07Z</time>
      </trkpt>
      <trkpt lat="45.41172" lon="5.94946">
        <ele>931.32</ele>
        <time>2013-08-24T10:25:10Z</time>
      </trkpt>
      <trkpt lat="45.41185" lon="5.94966">
        <ele>934.53</ele>
        <time>2013-08-24T10:25:13Z</time>
      </trkpt>
      <trkpt lat="45.41202" lon="5.94983">
        <ele>935.55</ele>
        <time>2013-08-24T10:25:17Z</time>
      </trkpt>
      <trkpt lat="45.41222" lon="5.94981">
        <ele>932.01</ele>
        <time>2013-08-24T10:25:20Z</time>
      </trkpt>
      <trkpt lat="45.41241" lon="5.94968">
        <ele>926.21</ele>
        <time>2013-08-24T10:25:23Z</time>
      </trkpt>
      <trkpt lat="45.41259" lon="5.94955">
        <ele>924.18</ele>
        <time>2013-08-24T10:25:26Z</time>
      </trkpt>
      <trkpt lat="45.41278" lon="5.94953">
        <ele>924.77</ele>
        <time>2013-08-24T10:25:31Z</time>
      </trkpt>
      <trkpt lat="45.41278" lon="5.94985">
        <ele>926.37</ele>
        <time>2013-08-24T10:25:35Z</time>
      </trkpt>
      <trkpt lat="45.4127" lon="5.95015">
        <ele>926.19</ele>
        <time>2013-08-24T10:25:38Z</time>
      </trkpt>
      <trkpt lat="45.41262" lon="5.95044">
        <ele>926.4</ele>
        <time>2013-08-24T10:25:41Z</time>
      </trkpt>
      <trkpt lat="45.41256" lon="5.9507">
        <ele>926.6</ele>
        <time>2013-08-24T10:25:44Z</time>
      </trkpt>
      <trkpt lat="45.41256" lon="5.95104">
        <ele>925.44</ele>
        <time>2013-08-24T10:25:48Z</time>
      </trkpt>
      <trkpt lat="45.41265" lon="5.95128">
        <ele>923.82</ele>
        <time>2013-08-24T10:25:51Z</time>
      </trkpt>
      <trkpt lat="45.41284" lon="5.95147">
        <ele>923.68</ele>
        <time>2013-08-24T10:25:55Z</time>
      </trkpt>
      <trkpt lat="45.41303" lon="5.95153">
        <ele>924.42</ele>
        <time>2013-08-24T10:25:58Z</time>
      </trkpt>
      <trkpt lat="45.41321" lon="5.95159">
        <ele>926.28</ele>
        <time>2013-08-24T10:26:01Z</time>
      </trkpt>
      <trkpt lat="45.41343" lon="5.95168">
        <ele>926.55</ele>
        <time>2013-08-24T10:26:04Z</time>
      </trkpt>
      <trkpt lat="45.41363" lon="5.95175">
        <ele>925.85</ele>
        <time>2013-08-24T10:26:07Z</time>
      </trkpt>
      <trkpt lat="45.41381" lon="5.95175">
        <ele>921.96</ele>
        <time>2013-08-24T10:26:11Z</time>
      </trkpt>
      <trkpt lat="45.414" lon="5.95171">
        <ele>923.04</ele>
        <time>2013-08-24T10:26:14Z</time>
      </trkpt>
      <trkpt lat="45.4142" lon="5.95171">
        <ele>925.38</ele>
        <time>2013-08-24T10:26:18Z</time>
      </trkpt>
      <trkpt lat="45.41432" lon="5.95197">
        <ele>928.63</ele>
        <time>2013-08-24T10:26:23Z</time>
      </trkpt>
      <trkpt lat="45.41448" lon="5.95213">
        <ele>927.13</ele>
        <time>2013-08-24T10:26:29Z</time>
      </trkpt>
      <trkpt lat="45.41465" lon="5.95225">
        <ele>932.17</ele>
        <time>2013-08-24T10:28:02Z</time>
      </trkpt>
      <trkpt lat="45.41476" lon="5.95253">
        <ele>936.74</ele>
        <time>2013-08-24T10:28:08Z</time>
      </trkpt>
      <trkpt lat="45.41488" lon="5.95278">
        <ele>939.05</ele>
        <time>2013-08-24T10:28:13Z</time>
      </trkpt>
      <trkpt lat="45.41505" lon="5.95299">
        <ele>938.92</ele>
        <time>2013-08-24T10:28:18Z</time>
      </trkpt>
      <trkpt lat="45.41524" lon="5.95313">
        <ele>939.14</ele>
        <time>2013-08-24T10:28:23Z</time>
      </trkpt>
      <trkpt lat="45.41544" lon="5.95326">
        <ele>939.7</ele>
        <time>2013-08-24T10:28:28Z</time>
      </trkpt>
      <trkpt lat="45.41562" lon="5.95338">
        <ele>942.22</ele>
        <time>2013-08-24T10:28:33Z</time>
      </trkpt>
      <trkpt lat="45.4158" lon="5.95352">
        <ele>945.53</ele>
        <time>2013-08-24T10:28:38Z</time>
      </trkpt>
      <trkpt lat="45.41599" lon="5.95365">
        <ele>946.2</ele>
        <time>2013-08-24T10:28:43Z</time>
      </trkpt>
      <trkpt lat="45.41614" lon="5.95381">
        <ele>946.89</ele>
        <time>2013-08-24T10:28:48Z</time>
      </trkpt>
      <trkpt lat="45.41626" lon="5.95402">
        <ele>948.68</ele>
        <time>2013-08-24T10:28:52Z</time>
      </trkpt>
      <trkpt lat="45.41637" lon="5.95428">
        <ele>947.45</ele>
        <time>2013-08-24T10:28:56Z</time>
      </trkpt>
      <trkpt lat="45.41647" lon="5.95457">
        <ele>946.73</ele>
        <time>2013-08-24T10:29:00Z</time>
      </trkpt>
      <trkpt lat="45.41661" lon="5.95484">
        <ele>946.04</ele>
        <time>2013-08-24T10:29:04Z</time>
      </trkpt>
      <trkpt lat="45.41675" lon="5.95502">
        <ele>945.37</ele>
        <time>2013-08-24T10:29:07Z</time>
      </trkpt>
      <trkpt lat="45.4169" lon="5.95518">
        <ele>944.4</ele>
        <time>2013-08-24T10:29:10Z</time>
      </trkpt>
      <trkpt lat="45.41705" lon="5.95535">
        <ele>943.08</ele>
        <time>2013-08-24T10:29:13Z</time>
      </trkpt>
      <trkpt lat="45.4172" lon="5.95552">
        <ele>942.45</ele>
        <time>2013-08-24T10:29:16Z</time>
      </trkpt>
      <trkpt lat="45.41736" lon="5.9557">
        <ele>943.27</ele>
        <time>2013-08-24T10:29:19Z</time>
      </trkpt>
      <trkpt lat="45.41751" lon="5.95587">
        <ele>944.2</ele>
        <time>2013-08-24T10:29:22Z</time>
      </trkpt>
      <trkpt lat="45.41766" lon="5.95604">
        <ele>944.2</ele>
        <time>2013-08-24T10:29:25Z</time>
      </trkpt>
      <trkpt lat="45.4178" lon="5.95622">
        <ele>944.01</ele>
        <time>2013-08-24T10:29:28Z</time>
      </trkpt>
      <trkpt lat="45.41794" lon="5.95645">
        <ele>944.26</ele>
        <time>2013-08-24T10:29:31Z</time>
      </trkpt>
      <trkpt lat="45.4181" lon="5.95663">
        <ele>943.46</ele>
        <time>2013-08-24T10:29:34Z</time>
      </trkpt>
      <trkpt lat="45.41832" lon="5.95671">
        <ele>942.95</ele>
        <time>2013-08-24T10:29:37Z</time>
      </trkpt>
      <trkpt lat="45.41851" lon="5.95681">
        <ele>942.13</ele>
        <time>2013-08-24T10:29:40Z</time>
      </trkpt>
      <trkpt lat="45.41839" lon="5.95706">
        <ele>940.63</ele>
        <time>2013-08-24T10:29:58Z</time>
      </trkpt>
      <trkpt lat="45.41824" lon="5.95733">
        <ele>939.03</ele>
        <time>2013-08-24T10:30:02Z</time>
      </trkpt>
      <trkpt lat="45.41816" lon="5.95758">
        <ele>933.96</ele>
        <time>2013-08-24T10:30:05Z</time>
      </trkpt>
      <trkpt lat="45.41807" lon="5.95786">
        <ele>931.21</ele>
        <time>2013-08-24T10:30:08Z</time>
      </trkpt>
      <trkpt lat="45.41793" lon="5.95815">
        <ele>928.49</ele>
        <time>2013-08-24T10:30:11Z</time>
      </trkpt>
      <trkpt lat="45.41776" lon="5.95838">
        <ele>926.29</ele>
        <time>2013-08-24T10:30:14Z</time>
      </trkpt>
      <trkpt lat="45.41757" lon="5.95854">
        <ele>922.47</ele>
        <time>2013-08-24T10:30:17Z</time>
      </trkpt>
      <trkpt lat="45.41736" lon="5.9586">
        <ele>919.1</ele>
        <time>2013-08-24T10:30:20Z</time>
      </trkpt>
      <trkpt lat="45.41718" lon="5.95866">
        <ele>915.81</ele>
        <time>2013-08-24T10:30:22Z</time>
      </trkpt>
      <trkpt lat="45.41699" lon="5.95873">
        <ele>912.97</ele>
        <time>2013-08-24T10:30:24Z</time>
      </trkpt>
      <trkpt lat="45.41678" lon="5.95881">
        <ele>910.3</ele>
        <time>2013-08-24T10:30:26Z</time>
      </trkpt>
      <trkpt lat="45.41654" lon="5.95886">
        <ele>906.84</ele>
        <time>2013-08-24T10:30:29Z</time>
      </trkpt>
      <trkpt lat="45.41632" lon="5.95883">
        <ele>904.22</ele>
        <time>2013-08-24T10:30:32Z</time>
      </trkpt>
      <trkpt lat="45.41613" lon="5.95868">
        <ele>902.54</ele>
        <time>2013-08-24T10:30:35Z</time>
      </trkpt>
      <trkpt lat="45.41593" lon="5.95861">
        <ele>901.37</ele>
        <time>2013-08-24T10:30:40Z</time>
      </trkpt>
      <trkpt lat="45.41577" lon="5.9588">
        <ele>901.57</ele>
        <time>2013-08-24T10:30:45Z</time>
      </trkpt>
      <trkpt lat="45.41566" lon="5.95902">
        <ele>901.06</ele>
        <time>2013-08-24T10:30:48Z</time>
      </trkpt>
      <trkpt lat="45.41548" lon="5.95919">
        <ele>900.19</ele>
        <time>2013-08-24T10:30:51Z</time>
      </trkpt>
      <trkpt lat="45.41529" lon="5.95928">
        <ele>897.37</ele>
        <time>2013-08-24T10:30:55Z</time>
      </trkpt>
      <trkpt lat="45.41511" lon="5.95941">
        <ele>894.7</ele>
        <time>2013-08-24T10:30:59Z</time>
      </trkpt>
      <trkpt lat="45.41492" lon="5.95944">
        <ele>897.05</ele>
        <time>2013-08-24T10:31:05Z</time>
      </trkpt>
      <trkpt lat="45.41471" lon="5.9595">
        <ele>895.49</ele>
        <time>2013-08-24T10:31:09Z</time>
      </trkpt>
      <trkpt lat="45.41452" lon="5.9596">
        <ele>886.51</ele>
        <time>2013-08-24T10:31:14Z</time>
      </trkpt>
      <trkpt lat="45.41434" lon="5.95978">
        <ele>875.62</ele>
        <time>2013-08-24T10:31:20Z</time>
      </trkpt>
      <trkpt lat="45.41423" lon="5.96001">
        <ele>866.46</ele>
        <time>2013-08-24T10:31:25Z</time>
      </trkpt>
      <trkpt lat="45.41408" lon="5.96022">
        <ele>852.41</ele>
        <time>2013-08-24T10:31:44Z</time>
      </trkpt>
      <trkpt lat="45.41402" lon="5.96049">
        <ele>842.33</ele>
        <time>2013-08-24T10:31:53Z</time>
      </trkpt>
      <trkpt lat="45.41383" lon="5.96042">
        <ele>832.77</ele>
        <time>2013-08-24T10:32:03Z</time>
      </trkpt>
      <trkpt lat="45.41377" lon="5.96067">
        <ele>829.19</ele>
        <time>2013-08-24T10:32:10Z</time>
      </trkpt>
      <trkpt lat="45.41364" lon="5.96093">
        <ele>823.3</ele>
        <time>2013-08-24T10:32:15Z</time>
      </trkpt>
      <trkpt lat="45.41354" lon="5.96116">
        <ele>816.95</ele>
        <time>2013-08-24T10:32:19Z</time>
      </trkpt>
      <trkpt lat="45.41357" lon="5.96143">
        <ele>805.58</ele>
        <time>2013-08-24T10:32:25Z</time>
      </trkpt>
      <trkpt lat="45.41368" lon="5.96165">
        <ele>799.07</ele>
        <time>2013-08-24T10:32:31Z</time>
      </trkpt>
      <trkpt lat="45.41377" lon="5.96188">
        <ele>796.32</ele>
        <time>2013-08-24T10:32:39Z</time>
      </trkpt>
      <trkpt lat="45.41387" lon="5.9621">
        <ele>791.61</ele>
        <time>2013-08-24T10:32:46Z</time>
      </trkpt>
      <trkpt lat="45.41396" lon="5.96232">
        <ele>786.96</ele>
        <time>2013-08-24T10:32:51Z</time>
      </trkpt>
      <trkpt lat="45.41409" lon="5.96254">
        <ele>784.35</ele>
        <time>2013-08-24T10:32:54Z</time>
      </trkpt>
      <trkpt lat="45.41412" lon="5.96283">
        <ele>781.94</ele>
        <time>2013-08-24T10:32:57Z</time>
      </trkpt>
      <trkpt lat="45.41416" lon="5.96313">
        <ele>778.71</ele>
        <time>2013-08-24T10:33:00Z</time>
      </trkpt>
      <trkpt lat="45.41423" lon="5.96339">
        <ele>776.25</ele>
        <time>2013-08-24T10:33:03Z</time>
      </trkpt>
      <trkpt lat="45.41431" lon="5.96366">
        <ele>773.08</ele>
        <time>2013-08-24T10:33:06Z</time>
      </trkpt>
      <trkpt lat="45.41443" lon="5.96395">
        <ele>769.82</ele>
        <time>2013-08-24T10:33:09Z</time>
      </trkpt>
      <trkpt lat="45.41455" lon="5.96414">
        <ele>766.71</ele>
        <time>2013-08-24T10:33:12Z</time>
      </trkpt>
      <trkpt lat="45.41469" lon="5.96433">
        <ele>765.27</ele>
        <time>2013-08-24T10:33:16Z</time>
      </trkpt>
      <trkpt lat="45.41447" lon="5.96423">
        <ele>757.15</ele>
        <time>2013-08-24T10:33:27Z</time>
      </trkpt>
      <trkpt lat="45.41427" lon="5.96419">
        <ele>753.71</ele>
        <time>2013-08-24T10:33:30Z</time>
      </trkpt>
      <trkpt lat="45.41408" lon="5.964">
        <ele>746.97</ele>
        <time>2013-08-24T10:33:34Z</time>
      </trkpt>
      <trkpt lat="45.41394" lon="5.96383">
        <ele>744.79</ele>
        <time>2013-08-24T10:33:37Z</time>
      </trkpt>
      <trkpt lat="45.41376" lon="5.96367">
        <ele>741.23</ele>
        <time>2013-08-24T10:33:42Z</time>
      </trkpt>
      <trkpt lat="45.41356" lon="5.96353">
        <ele>739.15</ele>
        <time>2013-08-24T10:33:46Z</time>
      </trkpt>
      <trkpt lat="45.41335" lon="5.96345">
        <ele>734.82</ele>
        <time>2013-08-24T10:33:51Z</time>
      </trkpt>
      <trkpt lat="45.41327" lon="5.9632">
        <ele>729.66</ele>
        <time>2013-08-24T10:33:55Z</time>
      </trkpt>
      <trkpt lat="45.41315" lon="5.96293">
        <ele>724.92</ele>
        <time>2013-08-24T10:33:59Z</time>
      </trkpt>
      <trkpt lat="45.41305" lon="5.9627">
        <ele>722.73</ele>
        <time>2013-08-24T10:34:03Z</time>
      </trkpt>
      <trkpt lat="45.41295" lon="5.96245">
        <ele>718.21</ele>
        <time>2013-08-24T10:34:09Z</time>
      </trkpt>
      <trkpt lat="45.4128" lon="5.96232">
        <ele>718.93</ele>
        <time>2013-08-24T10:34:14Z</time>
      </trkpt>
      <trkpt lat="45.41263" lon="5.96217">
        <ele>711.29</ele>
        <time>2013-08-24T10:34:21Z</time>
      </trkpt>
      <trkpt lat="45.41248" lon="5.96201">
        <ele>705.91</ele>
        <time>2013-08-24T10:34:24Z</time>
      </trkpt>
      <trkpt lat="45.41236" lon="5.96176">
        <ele>700.28</ele>
        <time>2013-08-24T10:34:27Z</time>
      </trkpt>
      <trkpt lat="45.41229" lon="5.96153">
        <ele>695.89</ele>
        <time>2013-08-24T10:34:30Z</time>
      </trkpt>
      <trkpt lat="45.41227" lon="5.96122">
        <ele>694.41</ele>
        <time>2013-08-24T10:34:34Z</time>
      </trkpt>
      <trkpt lat="45.41225" lon="5.96094">
        <ele>694.67</ele>
        <time>2013-08-24T10:34:39Z</time>
      </trkpt>
      <trkpt lat="45.41207" lon="5.96091">
        <ele>693.84</ele>
        <time>2013-08-24T10:34:55Z</time>
      </trkpt>
      <trkpt lat="45.41188" lon="5.96089">
        <ele>687.55</ele>
        <time>2013-08-24T10:35:02Z</time>
      </trkpt>
      <trkpt lat="45.41167" lon="5.96086">
        <ele>677.81</ele>
        <time>2013-08-24T10:35:09Z</time>
      </trkpt>
      <trkpt lat="45.41145" lon="5.96088">
        <ele>674.52</ele>
        <time>2013-08-24T10:35:13Z</time>
      </trkpt>
      <trkpt lat="45.41125" lon="5.96092">
        <ele>671.43</ele>
        <time>2013-08-24T10:35:16Z</time>
      </trkpt>
      <trkpt lat="45.41101" lon="5.96101">
        <ele>667.03</ele>
        <time>2013-08-24T10:35:19Z</time>
      </trkpt>
      <trkpt lat="45.41079" lon="5.96109">
        <ele>662.47</ele>
        <time>2013-08-24T10:35:22Z</time>
      </trkpt>
      <trkpt lat="45.41057" lon="5.9611">
        <ele>649.74</ele>
        <time>2013-08-24T10:35:27Z</time>
      </trkpt>
      <trkpt lat="45.4104" lon="5.961">
        <ele>640.84</ele>
        <time>2013-08-24T10:35:32Z</time>
      </trkpt>
      <trkpt lat="45.41024" lon="5.96081">
        <ele>635.98</ele>
        <time>2013-08-24T10:35:38Z</time>
      </trkpt>
      <trkpt lat="45.41007" lon="5.96067">
        <ele>630.99</ele>
        <time>2013-08-24T10:35:45Z</time>
      </trkpt>
      <trkpt lat="45.40989" lon="5.96055">
        <ele>627.3</ele>
        <time>2013-08-24T10:35:53Z</time>
      </trkpt>
      <trkpt lat="45.40971" lon="5.96039">
        <ele>624.53</ele>
        <time>2013-08-24T10:36:01Z</time>
      </trkpt>
      <trkpt lat="45.40955" lon="5.9602">
        <ele>621.88</ele>
        <time>2013-08-24T10:36:05Z</time>
      </trkpt>
      <trkpt lat="45.40939" lon="5.96003">
        <ele>614.92</ele>
        <time>2013-08-24T10:36:12Z</time>
      </trkpt>
      <trkpt lat="45.40937" lon="5.96029">
        <ele>605.68</ele>
        <time>2013-08-24T10:36:23Z</time>
      </trkpt>
      <trkpt lat="45.40938" lon="5.96058">
        <ele>600.74</ele>
        <time>2013-08-24T10:36:29Z</time>
      </trkpt>
      <trkpt lat="45.40939" lon="5.96086">
        <ele>592.99</ele>
        <time>2013-08-24T10:36:36Z</time>
      </trkpt>
      <trkpt lat="45.40944" lon="5.96111">
        <ele>586.96</ele>
        <time>2013-08-24T10:36:41Z</time>
      </trkpt>
      <trkpt lat="45.40955" lon="5.96136">
        <ele>582.91</ele>
        <time>2013-08-24T10:36:46Z</time>
      </trkpt>
      <trkpt lat="45.40968" lon="5.96159">
        <ele>579.01</ele>
        <time>2013-08-24T10:36:51Z</time>
      </trkpt>
      <trkpt lat="45.40983" lon="5.96184">
        <ele>574.49</ele>
        <time>2013-08-24T10:36:56Z</time>
      </trkpt>
      <trkpt lat="45.40996" lon="5.96211">
        <ele>569.77</ele>
        <time>2013-08-24T10:37:00Z</time>
      </trkpt>
      <trkpt lat="45.41" lon="5.96236">
        <ele>564.28</ele>
        <time>2013-08-24T10:37:05Z</time>
      </trkpt>
      <trkpt lat="45.40992" lon="5.9626">
        <ele>554.29</ele>
        <time>2013-08-24T10:37:11Z</time>
      </trkpt>
      <trkpt lat="45.40975" lon="5.96274">
        <ele>547.57</ele>
        <time>2013-08-24T10:37:17Z</time>
      </trkpt>
      <trkpt lat="45.40956" lon="5.96274">
        <ele>544.99</ele>
        <time>2013-08-24T10:37:23Z</time>
      </trkpt>
      <trkpt lat="45.40935" lon="5.96275">
        <ele>540.35</ele>
        <time>2013-08-24T10:37:28Z</time>
      </trkpt>
      <trkpt lat="45.40921" lon="5.96293">
        <ele>532.21</ele>
        <time>2013-08-24T10:37:33Z</time>
      </trkpt>
      <trkpt lat="45.40927" lon="5.9632">
        <ele>524.66</ele>
        <time>2013-08-24T10:37:39Z</time>
      </trkpt>
      <trkpt lat="45.40934" lon="5.96346">
        <ele>520.86</ele>
        <time>2013-08-24T10:37:44Z</time>
      </trkpt>
      <trkpt lat="45.40937" lon="5.96373">
        <ele>514.67</ele>
        <time>2013-08-24T10:37:50Z</time>
      </trkpt>
      <trkpt lat="45.40925" lon="5.96392">
        <ele>515.06</ele>
        <time>2013-08-24T10:38:18Z</time>
      </trkpt>
      <trkpt lat="45.40904" lon="5.96392">
        <ele>512.52</ele>
        <time>2013-08-24T10:38:24Z</time>
      </trkpt>
      <trkpt lat="45.40885" lon="5.96385">
        <ele>506.45</ele>
        <time>2013-08-24T10:38:30Z</time>
      </trkpt>
      <trkpt lat="45.40867" lon="5.96382">
        <ele>506.43</ele>
        <time>2013-08-24T10:39:38Z</time>
      </trkpt>
      <trkpt lat="45.40851" lon="5.96368">
        <ele>500.92</ele>
        <time>2013-08-24T10:39:43Z</time>
      </trkpt>
      <trkpt lat="45.40836" lon="5.9635">
        <ele>496.13</ele>
        <time>2013-08-24T10:39:47Z</time>
      </trkpt>
      <trkpt lat="45.40823" lon="5.96332">
        <ele>491.81</ele>
        <time>2013-08-24T10:39:51Z</time>
      </trkpt>
      <trkpt lat="45.40805" lon="5.96312">
        <ele>488.51</ele>
        <time>2013-08-24T10:39:55Z</time>
      </trkpt>
      <trkpt lat="45.40786" lon="5.96324">
        <ele>475.86</ele>
        <time>2013-08-24T10:40:01Z</time>
      </trkpt>
      <trkpt lat="45.40772" lon="5.96343">
        <ele>462.52</ele>
        <time>2013-08-24T10:40:08Z</time>
      </trkpt>
      <trkpt lat="45.40754" lon="5.96363">
        <ele>454.95</ele>
        <time>2013-08-24T10:40:12Z</time>
      </trkpt>
      <trkpt lat="45.40737" lon="5.96383">
        <ele>448.85</ele>
        <time>2013-08-24T10:40:16Z</time>
      </trkpt>
      <trkpt lat="45.40722" lon="5.96399">
        <ele>445.37</ele>
        <time>2013-08-24T10:40:19Z</time>
      </trkpt>
      <trkpt lat="45.40705" lon="5.96419">
        <ele>440.32</ele>
        <time>2013-08-24T10:40:22Z</time>
      </trkpt>
      <trkpt lat="45.40687" lon="5.96431">
        <ele>436.83</ele>
        <time>2013-08-24T10:40:26Z</time>
      </trkpt>
      <trkpt lat="45.40668" lon="5.96432">
        <ele>435.85</ele>
        <time>2013-08-24T10:40:30Z</time>
      </trkpt>
      <trkpt lat="45.40653" lon="5.96446">
        <ele>436.44</ele>
        <time>2013-08-24T10:40:34Z</time>
      </trkpt>
      <trkpt lat="45.40643" lon="5.96474">
        <ele>434.85</ele>
        <time>2013-08-24T10:40:37Z</time>
      </trkpt>
      <trkpt lat="45.40638" lon="5.96499">
        <ele>430.26</ele>
        <time>2013-08-24T10:40:43Z</time>
      </trkpt>
      <trkpt lat="45.40657" lon="5.96507">
        <ele>434.12</ele>
        <time>2013-08-24T10:42:32Z</time>
      </trkpt>
      <trkpt lat="45.40675" lon="5.96516">
        <ele>434.28</ele>
        <time>2013-08-24T10:42:36Z</time>
      </trkpt>
      <trkpt lat="45.40678" lon="5.96546">
        <ele>430.07</ele>
        <time>2013-08-24T10:42:41Z</time>
      </trkpt>
      <trkpt lat="45.40692" lon="5.96564">
        <ele>424.8</ele>
        <time>2013-08-24T10:42:47Z</time>
      </trkpt>
      <trkpt lat="45.40711" lon="5.96573">
        <ele>423.33</ele>
        <time>2013-08-24T10:42:52Z</time>
      </trkpt>
      <trkpt lat="45.40727" lon="5.96592">
        <ele>421.87</ele>
        <time>2013-08-24T10:42:56Z</time>
      </trkpt>
      <trkpt lat="45.40734" lon="5.96622">
        <ele>421.33</ele>
        <time>2013-08-24T10:43:00Z</time>
      </trkpt>
      <trkpt lat="45.40741" lon="5.96653">
        <ele>422.47</ele>
        <time>2013-08-24T10:43:04Z</time>
      </trkpt>
      <trkpt lat="45.40756" lon="5.96676">
        <ele>422.74</ele>
        <time>2013-08-24T10:43:07Z</time>
      </trkpt>
      <trkpt lat="45.40773" lon="5.96698">
        <ele>421.08</ele>
        <time>2013-08-24T10:43:10Z</time>
      </trkpt>
      <trkpt lat="45.40793" lon="5.96711">
        <ele>420.64</ele>
        <time>2013-08-24T10:43:13Z</time>
      </trkpt>
      <trkpt lat="45.4081" lon="5.96719">
        <ele>419.59</ele>
        <time>2013-08-24T10:43:16Z</time>
      </trkpt>
      <trkpt lat="45.40829" lon="5.96719">
        <ele>416.18</ele>
        <time>2013-08-24T10:43:19Z</time>
      </trkpt>
      <trkpt lat="45.40851" lon="5.9672">
        <ele>414.96</ele>
        <time>2013-08-24T10:43:22Z</time>
      </trkpt>
      <trkpt lat="45.40875" lon="5.96723">
        <ele>414.47</ele>
        <time>2013-08-24T10:43:25Z</time>
      </trkpt>
      <trkpt lat="45.40899" lon="5.96733">
        <ele>412.86</ele>
        <time>2013-08-24T10:43:28Z</time>
      </trkpt>
      <trkpt lat="45.40923" lon="5.96751">
        <ele>411.14</ele>
        <time>2013-08-24T10:43:31Z</time>
      </trkpt>
      <trkpt lat="45.40938" lon="5.96766">
        <ele>409.9</ele>
        <time>2013-08-24T10:43:33Z</time>
      </trkpt>
      <trkpt lat="45.40953" lon="5.96782">
        <ele>408.33</ele>
        <time>2013-08-24T10:43:35Z</time>
      </trkpt>
      <trkpt lat="45.40968" lon="5.96799">
        <ele>407.26</ele>
        <time>2013-08-24T10:43:37Z</time>
      </trkpt>
      <trkpt lat="45.40983" lon="5.96816">
        <ele>406.22</ele>
        <time>2013-08-24T10:43:39Z</time>
      </trkpt>
      <trkpt lat="45.40997" lon="5.96833">
        <ele>405.38</ele>
        <time>2013-08-24T10:43:41Z</time>
      </trkpt>
      <trkpt lat="45.41011" lon="5.96849">
        <ele>404.47</ele>
        <time>2013-08-24T10:43:43Z</time>
      </trkpt>
      <trkpt lat="45.41032" lon="5.96874">
        <ele>403.11</ele>
        <time>2013-08-24T10:43:46Z</time>
      </trkpt>
      <trkpt lat="45.41046" lon="5.9689">
        <ele>402.14</ele>
        <time>2013-08-24T10:43:48Z</time>
      </trkpt>
      <trkpt lat="45.4106" lon="5.96906">
        <ele>401.34</ele>
        <time>2013-08-24T10:43:50Z</time>
      </trkpt>
      <trkpt lat="45.41074" lon="5.96922">
        <ele>400.45</ele>
        <time>2013-08-24T10:43:52Z</time>
      </trkpt>
      <trkpt lat="45.41088" lon="5.96939">
        <ele>399.51</ele>
        <time>2013-08-24T10:43:54Z</time>
      </trkpt>
      <trkpt lat="45.41102" lon="5.96955">
        <ele>398.55</ele>
        <time>2013-08-24T10:43:56Z</time>
      </trkpt>
      <trkpt lat="45.41122" lon="5.96978">
        <ele>398.27</ele>
        <time>2013-08-24T10:43:59Z</time>
      </trkpt>
      <trkpt lat="45.41144" lon="5.96999">
        <ele>399.46</ele>
        <time>2013-08-24T10:44:02Z</time>
      </trkpt>
      <trkpt lat="45.4116" lon="5.97017">
        <ele>398.33</ele>
        <time>2013-08-24T10:44:04Z</time>
      </trkpt>
      <trkpt lat="45.41174" lon="5.97032">
        <ele>397.26</ele>
        <time>2013-08-24T10:44:06Z</time>
      </trkpt>
      <trkpt lat="45.41195" lon="5.97051">
        <ele>396.99</ele>
        <time>2013-08-24T10:44:09Z</time>
      </trkpt>
      <trkpt lat="45.41219" lon="5.97068">
        <ele>397.75</ele>
        <time>2013-08-24T10:44:12Z</time>
      </trkpt>
      <trkpt lat="45.41241" lon="5.97085">
        <ele>397.28</ele>
        <time>2013-08-24T10:44:15Z</time>
      </trkpt>
      <trkpt lat="45.41261" lon="5.97099">
        <ele>395.2</ele>
        <time>2013-08-24T10:44:18Z</time>
      </trkpt>
      <trkpt lat="45.41278" lon="5.97113">
        <ele>393.42</ele>
        <time>2013-08-24T10:44:21Z</time>
      </trkpt>
      <trkpt lat="45.41294" lon="5.97125">
        <ele>392.53</ele>
        <time>2013-08-24T10:44:24Z</time>
      </trkpt>
      <trkpt lat="45.4131" lon="5.97138">
        <ele>392.15</ele>
        <time>2013-08-24T10:44:27Z</time>
      </trkpt>
      <trkpt lat="45.4133" lon="5.97154">
        <ele>391.28</ele>
        <time>2013-08-24T10:44:31Z</time>
      </trkpt>
      <trkpt lat="45.4135" lon="5.97169">
        <ele>391.01</ele>
        <time>2013-08-24T10:44:35Z</time>
      </trkpt>
      <trkpt lat="45.4137" lon="5.97183">
        <ele>390.92</ele>
        <time>2013-08-24T10:44:39Z</time>
      </trkpt>
      <trkpt lat="45.4139" lon="5.97198">
        <ele>390.31</ele>
        <time>2013-08-24T10:44:43Z</time>
      </trkpt>
      <trkpt lat="45.41406" lon="5.9721">
        <ele>389.62</ele>
        <time>2013-08-24T10:44:46Z</time>
      </trkpt>
      <trkpt lat="45.41422" lon="5.97223">
        <ele>389.19</ele>
        <time>2013-08-24T10:44:49Z</time>
      </trkpt>
      <trkpt lat="45.41439" lon="5.97235">
        <ele>388.57</ele>
        <time>2013-08-24T10:44:52Z</time>
      </trkpt>
      <trkpt lat="45.41456" lon="5.97248">
        <ele>388.17</ele>
        <time>2013-08-24T10:44:55Z</time>
      </trkpt>
      <trkpt lat="45.41474" lon="5.97261">
        <ele>388.97</ele>
        <time>2013-08-24T10:44:58Z</time>
      </trkpt>
      <trkpt lat="45.41494" lon="5.97275">
        <ele>389.39</ele>
        <time>2013-08-24T10:45:01Z</time>
      </trkpt>
      <trkpt lat="45.41512" lon="5.97289">
        <ele>388.84</ele>
        <time>2013-08-24T10:45:04Z</time>
      </trkpt>
      <trkpt lat="45.4153" lon="5.97302">
        <ele>388.03</ele>
        <time>2013-08-24T10:45:07Z</time>
      </trkpt>
      <trkpt lat="45.41547" lon="5.97315">
        <ele>386.98</ele>
        <time>2013-08-24T10:45:10Z</time>
      </trkpt>
      <trkpt lat="45.41564" lon="5.97327">
        <ele>386.84</ele>
        <time>2013-08-24T10:45:13Z</time>
      </trkpt>
      <trkpt lat="45.41583" lon="5.97338">
        <ele>388.27</ele>
        <time>2013-08-24T10:45:16Z</time>
      </trkpt>
      <trkpt lat="45.41604" lon="5.97351">
        <ele>388.73</ele>
        <time>2013-08-24T10:45:19Z</time>
      </trkpt>
      <trkpt lat="45.41625" lon="5.97364">
        <ele>388.5</ele>
        <time>2013-08-24T10:45:22Z</time>
      </trkpt>
      <trkpt lat="45.41646" lon="5.97375">
        <ele>387.5</ele>
        <time>2013-08-24T10:45:25Z</time>
      </trkpt>
      <trkpt lat="45.41668" lon="5.97387">
        <ele>384.03</ele>
        <time>2013-08-24T10:45:28Z</time>
      </trkpt>
      <trkpt lat="45.41688" lon="5.97397">
        <ele>379.79</ele>
        <time>2013-08-24T10:45:31Z</time>
      </trkpt>
      <trkpt lat="45.41709" lon="5.97407">
        <ele>376.73</ele>
        <time>2013-08-24T10:45:34Z</time>
      </trkpt>
      <trkpt lat="45.41731" lon="5.97422">
        <ele>373.67</ele>
        <time>2013-08-24T10:45:37Z</time>
      </trkpt>
      <trkpt lat="45.41752" lon="5.97439">
        <ele>371.23</ele>
        <time>2013-08-24T10:45:40Z</time>
      </trkpt>
      <trkpt lat="45.41772" lon="5.97452">
        <ele>369.48</ele>
        <time>2013-08-24T10:45:43Z</time>
      </trkpt>
      <trkpt lat="45.41791" lon="5.97463">
        <ele>368.55</ele>
        <time>2013-08-24T10:45:46Z</time>
      </trkpt>
      <trkpt lat="45.4181" lon="5.97473">
        <ele>368.35</ele>
        <time>2013-08-24T10:45:49Z</time>
      </trkpt>
      <trkpt lat="45.41831" lon="5.97479">
        <ele>367.83</ele>
        <time>2013-08-24T10:45:52Z</time>
      </trkpt>
      <trkpt lat="45.41854" lon="5.97485">
        <ele>366.92</ele>
        <time>2013-08-24T10:45:55Z</time>
      </trkpt>
      <trkpt lat="45.41879" lon="5.97491">
        <ele>363.79</ele>
        <time>2013-08-24T10:45:58Z</time>
      </trkpt>
      <trkpt lat="45.41905" lon="5.97496">
        <ele>362.17</ele>
        <time>2013-08-24T10:46:01Z</time>
      </trkpt>
      <trkpt lat="45.41928" lon="5.97508">
        <ele>361.56</ele>
        <time>2013-08-24T10:46:04Z</time>
      </trkpt>
      <trkpt lat="45.4195" lon="5.97522">
        <ele>360.18</ele>
        <time>2013-08-24T10:46:07Z</time>
      </trkpt>
      <trkpt lat="45.41974" lon="5.97537">
        <ele>357.58</ele>
        <time>2013-08-24T10:46:10Z</time>
      </trkpt>
      <trkpt lat="45.41997" lon="5.9755">
        <ele>355.44</ele>
        <time>2013-08-24T10:46:13Z</time>
      </trkpt>
      <trkpt lat="45.4202" lon="5.97562">
        <ele>353.91</ele>
        <time>2013-08-24T10:46:16Z</time>
      </trkpt>
      <trkpt lat="45.42043" lon="5.97573">
        <ele>352.74</ele>
        <time>2013-08-24T10:46:19Z</time>
      </trkpt>
      <trkpt lat="45.42066" lon="5.97585">
        <ele>351.66</ele>
        <time>2013-08-24T10:46:22Z</time>
      </trkpt>
      <trkpt lat="45.42087" lon="5.97595">
        <ele>351.21</ele>
        <time>2013-08-24T10:46:25Z</time>
      </trkpt>
      <trkpt lat="45.42104" lon="5.97606">
        <ele>351.6</ele>
        <time>2013-08-24T10:46:28Z</time>
      </trkpt>
      <trkpt lat="45.42121" lon="5.97616">
        <ele>352.67</ele>
        <time>2013-08-24T10:46:31Z</time>
      </trkpt>
      <trkpt lat="45.42138" lon="5.97628">
        <ele>351.96</ele>
        <time>2013-08-24T10:46:34Z</time>
      </trkpt>
      <trkpt lat="45.42158" lon="5.97642">
        <ele>351.61</ele>
        <time>2013-08-24T10:46:38Z</time>
      </trkpt>
      <trkpt lat="45.42178" lon="5.97655">
        <ele>351.36</ele>
        <time>2013-08-24T10:46:42Z</time>
      </trkpt>
      <trkpt lat="45.42201" lon="5.97669">
        <ele>350.45</ele>
        <time>2013-08-24T10:46:46Z</time>
      </trkpt>
      <trkpt lat="45.4222" lon="5.9768">
        <ele>349.79</ele>
        <time>2013-08-24T10:46:49Z</time>
      </trkpt>
      <trkpt lat="45.42237" lon="5.97692">
        <ele>350.28</ele>
        <time>2013-08-24T10:46:52Z</time>
      </trkpt>
      <trkpt lat="45.42256" lon="5.97706">
        <ele>349.8</ele>
        <time>2013-08-24T10:46:55Z</time>
      </trkpt>
      <trkpt lat="45.42275" lon="5.97718">
        <ele>347.17</ele>
        <time>2013-08-24T10:46:58Z</time>
      </trkpt>
      <trkpt lat="45.42293" lon="5.97731">
        <ele>346.39</ele>
        <time>2013-08-24T10:47:01Z</time>
      </trkpt>
      <trkpt lat="45.42311" lon="5.97743">
        <ele>346.67</ele>
        <time>2013-08-24T10:47:04Z</time>
      </trkpt>
      <trkpt lat="45.42331" lon="5.97759">
        <ele>345.94</ele>
        <time>2013-08-24T10:47:08Z</time>
      </trkpt>
      <trkpt lat="45.42348" lon="5.97771">
        <ele>345.76</ele>
        <time>2013-08-24T10:47:11Z</time>
      </trkpt>
      <trkpt lat="45.42368" lon="5.97785">
        <ele>347.87</ele>
        <time>2013-08-24T10:47:15Z</time>
      </trkpt>
      <trkpt lat="45.42385" lon="5.97796">
        <ele>347.77</ele>
        <time>2013-08-24T10:47:18Z</time>
      </trkpt>
      <trkpt lat="45.42405" lon="5.97806">
        <ele>346.24</ele>
        <time>2013-08-24T10:47:21Z</time>
      </trkpt>
      <trkpt lat="45.42428" lon="5.97815">
        <ele>344.44</ele>
        <time>2013-08-24T10:47:24Z</time>
      </trkpt>
      <trkpt lat="45.42449" lon="5.97824">
        <ele>343.21</ele>
        <time>2013-08-24T10:47:27Z</time>
      </trkpt>
      <trkpt lat="45.42468" lon="5.97833">
        <ele>343.16</ele>
        <time>2013-08-24T10:47:30Z</time>
      </trkpt>
      <trkpt lat="45.42489" lon="5.97843">
        <ele>342.86</ele>
        <time>2013-08-24T10:47:33Z</time>
      </trkpt>
      <trkpt lat="45.42512" lon="5.97852">
        <ele>342.37</ele>
        <time>2013-08-24T10:47:36Z</time>
      </trkpt>
      <trkpt lat="45.42534" lon="5.97858">
        <ele>342.44</ele>
        <time>2013-08-24T10:47:39Z</time>
      </trkpt>
      <trkpt lat="45.42556" lon="5.97866">
        <ele>342.45</ele>
        <time>2013-08-24T10:47:42Z</time>
      </trkpt>
      <trkpt lat="45.42574" lon="5.97872">
        <ele>341.01</ele>
        <time>2013-08-24T10:47:44Z</time>
      </trkpt>
      <trkpt lat="45.42592" lon="5.97879">
        <ele>339.2</ele>
        <time>2013-08-24T10:47:46Z</time>
      </trkpt>
      <trkpt lat="45.42615" lon="5.97891">
        <ele>336.84</ele>
        <time>2013-08-24T10:47:49Z</time>
      </trkpt>
      <trkpt lat="45.42636" lon="5.97905">
        <ele>335.38</ele>
        <time>2013-08-24T10:47:52Z</time>
      </trkpt>
      <trkpt lat="45.42656" lon="5.97919">
        <ele>335.14</ele>
        <time>2013-08-24T10:47:55Z</time>
      </trkpt>
      <trkpt lat="45.42675" lon="5.97934">
        <ele>334.85</ele>
        <time>2013-08-24T10:47:58Z</time>
      </trkpt>
      <trkpt lat="45.42695" lon="5.97949">
        <ele>333.46</ele>
        <time>2013-08-24T10:48:01Z</time>
      </trkpt>
      <trkpt lat="45.42714" lon="5.97964">
        <ele>332.11</ele>
        <time>2013-08-24T10:48:04Z</time>
      </trkpt>
      <trkpt lat="45.42734" lon="5.97979">
        <ele>331.97</ele>
        <time>2013-08-24T10:48:07Z</time>
      </trkpt>
      <trkpt lat="45.42753" lon="5.97993">
        <ele>331.67</ele>
        <time>2013-08-24T10:48:10Z</time>
      </trkpt>
      <trkpt lat="45.42772" lon="5.98006">
        <ele>330.63</ele>
        <time>2013-08-24T10:48:13Z</time>
      </trkpt>
      <trkpt lat="45.4279" lon="5.98018">
        <ele>331.21</ele>
        <time>2013-08-24T10:48:16Z</time>
      </trkpt>
      <trkpt lat="45.42809" lon="5.98032">
        <ele>331.49</ele>
        <time>2013-08-24T10:48:19Z</time>
      </trkpt>
      <trkpt lat="45.42825" lon="5.98047">
        <ele>330.56</ele>
        <time>2013-08-24T10:48:22Z</time>
      </trkpt>
      <trkpt lat="45.42845" lon="5.98066">
        <ele>329.41</ele>
        <time>2013-08-24T10:48:26Z</time>
      </trkpt>
      <trkpt lat="45.42862" lon="5.98083">
        <ele>331.07</ele>
        <time>2013-08-24T10:48:30Z</time>
      </trkpt>
      <trkpt lat="45.42879" lon="5.98102">
        <ele>330.69</ele>
        <time>2013-08-24T10:48:34Z</time>
      </trkpt>
      <trkpt lat="45.42897" lon="5.98119">
        <ele>328.19</ele>
        <time>2013-08-24T10:48:38Z</time>
      </trkpt>
      <trkpt lat="45.42912" lon="5.98133">
        <ele>327.84</ele>
        <time>2013-08-24T10:48:42Z</time>
      </trkpt>
      <trkpt lat="45.42929" lon="5.98143">
        <ele>328.8</ele>
        <time>2013-08-24T10:48:46Z</time>
      </trkpt>
      <trkpt lat="45.42949" lon="5.98156">
        <ele>328.25</ele>
        <time>2013-08-24T10:48:51Z</time>
      </trkpt>
      <trkpt lat="45.4297" lon="5.98156">
        <ele>327.86</ele>
        <time>2013-08-24T10:48:56Z</time>
      </trkpt>
      <trkpt lat="45.42991" lon="5.98155">
        <ele>327.19</ele>
        <time>2013-08-24T10:49:01Z</time>
      </trkpt>
      <trkpt lat="45.43009" lon="5.98154">
        <ele>328.46</ele>
        <time>2013-08-24T10:49:06Z</time>
      </trkpt>
      <trkpt lat="45.4303" lon="5.98153">
        <ele>329.84</ele>
        <time>2013-08-24T10:49:12Z</time>
      </trkpt>
      <trkpt lat="45.43024" lon="5.98181">
        <ele>332.09</ele>
        <time>2013-08-24T10:49:20Z</time>
      </trkpt>
      <trkpt lat="45.43013" lon="5.98202">
        <ele>334.37</ele>
        <time>2013-08-24T10:49:24Z</time>
      </trkpt>
      <trkpt lat="45.43002" lon="5.98225">
        <ele>331.71</ele>
        <time>2013-08-24T10:49:28Z</time>
      </trkpt>
      <trkpt lat="45.42989" lon="5.98249">
        <ele>330.46</ele>
        <time>2013-08-24T10:49:32Z</time>
      </trkpt>
      <trkpt lat="45.42976" lon="5.98275">
        <ele>328.25</ele>
        <time>2013-08-24T10:49:37Z</time>
      </trkpt>
      <trkpt lat="45.42961" lon="5.98297">
        <ele>326.36</ele>
        <time>2013-08-24T10:49:42Z</time>
      </trkpt>
      <trkpt lat="45.42946" lon="5.98315">
        <ele>324.56</ele>
        <time>2013-08-24T10:49:47Z</time>
      </trkpt>
      <trkpt lat="45.42934" lon="5.9834">
        <ele>326.1</ele>
        <time>2013-08-24T10:49:53Z</time>
      </trkpt>
      <trkpt lat="45.42925" lon="5.98363">
        <ele>327.21</ele>
        <time>2013-08-24T10:50:00Z</time>
      </trkpt>
      <trkpt lat="45.42915" lon="5.98386">
        <ele>329.15</ele>
        <time>2013-08-24T10:50:08Z</time>
      </trkpt>
      <trkpt lat="45.42929" lon="5.98406">
        <ele>330.63</ele>
        <time>2013-08-24T10:52:38Z</time>
      </trkpt>
    </trkseg>
  </trk>
</gpx>